Observation data for Sweetwater on 09/11/2017      Previous  Date  Next       Current Mesonet Observations  Soil Data  Daily Summary Page  Observations in Plain Language
KSW1 110500Z 11007KT 19/10 A3021 RMK A01 T01850100  RH  058%=      5-min Rain = 0
KSW1 110501Z 11007KT 19/10 A3021 RMK A01 T01850100  RH  058%=      5-min Rain = 0
KSW1 110502Z 11007KT 18/10 A3021 RMK A01 T01840100  RH  058%=      5-min Rain = 0
KSW1 110503Z 11007KT 18/10 A3021 RMK A01 T01840100  RH  058%=      5-min Rain = 0
KSW1 110504Z 11007KT 18/10 A3021 RMK A01 T01840101  RH  058%=      5-min Rain = 0
KSW1 110505Z 11007KT 18/10 A3021 RMK A01 T01840101  RH  058%=      5-min Rain = 0
KSW1 110506Z 11007KT 18/10 A3021 RMK A01 T01830100  RH  058%=      5-min Rain = 0
KSW1 110507Z 11007KT 18/10 A3021 RMK A01 T01830101  RH  059%=      5-min Rain = 0
KSW1 110508Z 12008KT 18/10 A3021 RMK A01 T01830101  RH  059%=      5-min Rain = 0
KSW1 110509Z 12008KT 18/10 A3021 RMK A01 T01830101  RH  059%=      5-min Rain = 0
KSW1 110510Z 11007KT 18/10 A3021 RMK A01 T01830100  RH  059%=      5-min Rain = 0
KSW1 110511Z 11007KT 18/10 A3021 RMK A01 T01830100  RH  059%=      5-min Rain = 0
KSW1 110512Z 11007KT 18/10 A3021 RMK A01 T01830101  RH  059%=      5-min Rain = 0
KSW1 110513Z 11007KT 18/10 A3021 RMK A01 T01820101  RH  059%=      5-min Rain = 0
KSW1 110514Z 11007KT 18/10 A3021 RMK A01 T01820101  RH  059%=      5-min Rain = 0
KSW1 110515Z 12007KT 18/10 A3021 RMK A01 T01810101  RH  059%=      5-min Rain = 0
KSW1 110516Z 11007KT 18/10 A3021 RMK A01 T01810101  RH  060%=      5-min Rain = 0
KSW1 110517Z 12007KT 18/10 A3021 RMK A01 T01810101  RH  060%=      5-min Rain = 0
KSW1 110518Z 12006KT 18/10 A3021 RMK A01 T01810101  RH  060%=      5-min Rain = 0
KSW1 110519Z 12006KT 18/10 A3021 RMK A01 T01810101  RH  060%=      5-min Rain = 0
KSW1 110520Z 12007KT 18/10 A3021 RMK A01 T01810101  RH  060%=      5-min Rain = 0
KSW1 110521Z 12007KT 18/10 A3021 RMK A01 T01810102  RH  060%=      5-min Rain = 0
KSW1 110522Z 12007KT 18/10 A3021 RMK A01 T01810102  RH  060%=      5-min Rain = 0
KSW1 110523Z 12007KT 18/10 A3021 RMK A01 T01810102  RH  060%=      5-min Rain = 0
KSW1 110524Z 12007KT 18/10 A3021 RMK A01 T01810102  RH  060%=      5-min Rain = 0
KSW1 110525Z 12007KT 18/10 A3021 RMK A01 T01810102  RH  060%=      5-min Rain = 0
KSW1 110526Z 12007KT 18/10 A3021 RMK A01 T01810102  RH  060%=      5-min Rain = 0
KSW1 110527Z 12007KT 18/10 A3021 RMK A01 T01810102  RH  060%=      5-min Rain = 0
KSW1 110528Z 12008KT 18/10 A3021 RMK A01 T01810103  RH  060%=      5-min Rain = 0
KSW1 110529Z 12007KT 18/10 A3021 RMK A01 T01810102  RH  060%=      5-min Rain = 0
KSW1 110530Z 12008KT 18/10 A3021 RMK A01 T01810102  RH  060%=      5-min Rain = 0
KSW1 110531Z 12008KT 18/10 A3021 RMK A01 T01820103  RH  060%=      5-min Rain = 0
KSW1 110532Z 12008KT 18/10 A3021 RMK A01 T01820103  RH  060%=      5-min Rain = 0
KSW1 110533Z 12008KT 18/10 A3021 RMK A01 T01830103  RH  060%=      5-min Rain = 0
KSW1 110534Z 12007KT 18/10 A3021 RMK A01 T01820103  RH  060%=      5-min Rain = 0
KSW1 110535Z 12007KT 18/10 A3021 RMK A01 T01820103  RH  060%=      5-min Rain = 0
KSW1 110536Z 12008KT 18/10 A3021 RMK A01 T01830103  RH  060%=      5-min Rain = 0
KSW1 110537Z 12008KT 18/10 A3021 RMK A01 T01830103  RH  060%=      5-min Rain = 0
KSW1 110538Z 12008KT 18/10 A3021 RMK A01 T01830103  RH  060%=      5-min Rain = 0
KSW1 110539Z 12009KT 18/10 A3021 RMK A01 T01830103  RH  059%=      5-min Rain = 0
KSW1 110540Z 12009KT 18/10 A3021 RMK A01 T01840104  RH  059%=      5-min Rain = 0
KSW1 110541Z 12009KT 19/10 A3021 RMK A01 T01850104  RH  059%=      5-min Rain = 0
KSW1 110542Z 12009KT 19/10 A3021 RMK A01 T01860104  RH  059%=      5-min Rain = 0
KSW1 110543Z 12009KT 19/10 A3021 RMK A01 T01870104  RH  059%=      5-min Rain = 0
KSW1 110544Z 12009KT 19/10 A3021 RMK A01 T01870104  RH  058%=      5-min Rain = 0
KSW1 110545Z 12010KT 19/10 A3021 RMK A01 T01880104  RH  058%=      5-min Rain = 0
KSW1 110546Z 12009KT 19/10 A3021 RMK A01 T01880104  RH  058%=      5-min Rain = 0
KSW1 110547Z 12009KT 19/10 A3021 RMK A01 T01880104  RH  058%=      5-min Rain = 0
KSW1 110548Z 12009KT 19/10 A3021 RMK A01 T01890103  RH  058%=      5-min Rain = 0
KSW1 110549Z 13009KT 19/10 A3021 RMK A01 T01890104  RH  058%=      5-min Rain = 0
KSW1 110550Z 12009KT 19/10 A3021 RMK A01 T01890104  RH  057%=      5-min Rain = 0
KSW1 110551Z 12010KT 19/10 A3021 RMK A01 T01890103  RH  057%=      5-min Rain = 0
KSW1 110552Z 12010KT 19/10 A3021 RMK A01 T01900103  RH  057%=      5-min Rain = 0
KSW1 110553Z 12010KT 19/10 A3021 RMK A01 T01910103  RH  057%=      5-min Rain = 0
KSW1 110554Z 12010KT 19/10 A3021 RMK A01 T01910103  RH  057%=      5-min Rain = 0
KSW1 110555Z 12010KT 19/10 A3021 RMK A01 T01910103  RH  056%=      5-min Rain = 0
KSW1 110556Z 12010KT 19/10 A3021 RMK A01 T01910103  RH  056%=      5-min Rain = 0
KSW1 110557Z 12010KT 19/10 A3021 RMK A01 T01920103  RH  056%=      5-min Rain = 0
KSW1 110558Z 12010KT 19/10 A3021 RMK A01 T01920103  RH  056%=      5-min Rain = 0
KSW1 110559Z 12010KT 19/10 A3021 RMK A01 T01920102  RH  056%=      5-min Rain = 0
KSW1 110600Z 12010KT 19/10 A3021 RMK A01 T01920103  RH  056%=      5-min Rain = 0
KSW1 110601Z 12009KT 19/10 A3021 RMK A01 T01920102  RH  056%=      5-min Rain = 0
KSW1 110602Z 12010KT 19/10 A3021 RMK A01 T01920102  RH  056%=      5-min Rain = 0
KSW1 110603Z 12010KT 19/10 A3021 RMK A01 T01920102  RH  056%=      5-min Rain = 0
KSW1 110604Z 12011KT 19/10 A3021 RMK A01 T01920102  RH  056%=      5-min Rain = 0
KSW1 110605Z 12010KT 19/10 A3021 RMK A01 T01920102  RH  056%=      5-min Rain = 0
KSW1 110606Z 12011KT 19/10 A3021 RMK A01 T01920101  RH  056%=      5-min Rain = 0
KSW1 110607Z 12010KT 19/10 A3021 RMK A01 T01930101  RH  055%=      5-min Rain = 0
KSW1 110608Z 12009KT 19/10 A3021 RMK A01 T01930101  RH  055%=      5-min Rain = 0
KSW1 110609Z 13009KT 19/10 A3021 RMK A01 T01930101  RH  055%=      5-min Rain = 0
KSW1 110610Z 12009KT 19/10 A3021 RMK A01 T01930101  RH  055%=      5-min Rain = 0
KSW1 110611Z 12009KT 19/10 A3021 RMK A01 T01920101  RH  055%=      5-min Rain = 0
KSW1 110612Z 12009KT 19/10 A3021 RMK A01 T01920101  RH  055%=      5-min Rain = 0
KSW1 110613Z 12008KT 19/10 A3021 RMK A01 T01920101  RH  056%=      5-min Rain = 0
KSW1 110614Z 12009KT 19/10 A3021 RMK A01 T01910101  RH  056%=      5-min Rain = 0
KSW1 110615Z 12009KT 19/10 A3021 RMK A01 T01910100  RH  056%=      5-min Rain = 0
KSW1 110616Z 12009KT 19/10 A3021 RMK A01 T01910100  RH  055%=      5-min Rain = 0
KSW1 110617Z 12009KT 19/10 A3021 RMK A01 T01920100  RH  055%=      5-min Rain = 0
KSW1 110618Z 12008KT 19/10 A3021 RMK A01 T01920100  RH  055%=      5-min Rain = 0
KSW1 110619Z 12009KT 19/10 A3021 RMK A01 T01910100  RH  055%=      5-min Rain = 0
KSW1 110620Z 12009KT 19/10 A3021 RMK A01 T01910100  RH  056%=      5-min Rain = 0
KSW1 110621Z 12010KT 19/10 A3021 RMK A01 T01910100  RH  056%=      5-min Rain = 0
KSW1 110622Z 13010KT 19/10 A3021 RMK A01 T01910100  RH  055%=      5-min Rain = 0
KSW1 110623Z 13009KT 19/10 A3021 RMK A01 T01910100  RH  055%=      5-min Rain = 0
KSW1 110624Z 13010KT 19/10 A3021 RMK A01 T01910099  RH  055%=      5-min Rain = 0
KSW1 110625Z 13010KT 19/10 A3021 RMK A01 T01910099  RH  055%=      5-min Rain = 0
KSW1 110626Z 13009KT 19/10 A3021 RMK A01 T01920100  RH  055%=      5-min Rain = 0
KSW1 110627Z 13008KT 19/10 A3021 RMK A01 T01910099  RH  055%=      5-min Rain = 0
KSW1 110628Z 13007KT 19/10 A3021 RMK A01 T01910100  RH  055%=      5-min Rain = 0
KSW1 110629Z 13008KT 19/10 A3021 RMK A01 T01900100  RH  056%=      5-min Rain = 0
KSW1 110630Z 13009KT 19/10 A3021 RMK A01 T01890100  RH  056%=      5-min Rain = 0
KSW1 110631Z 13008KT 19/10 A3021 RMK A01 T01890100  RH  056%=      5-min Rain = 0
KSW1 110632Z 13008KT 19/10 A3021 RMK A01 T01880100  RH  056%=      5-min Rain = 0
KSW1 110633Z 13007KT 19/10 A3021 RMK A01 T01880100  RH  057%=      5-min Rain = 0
KSW1 110634Z 13007KT 19/10 A3021 RMK A01 T01870100  RH  057%=      5-min Rain = 0
KSW1 110635Z 14008KT 19/10 A3021 RMK A01 T01860100  RH  057%=      5-min Rain = 0
KSW1 110636Z 13006KT 19/10 A3021 RMK A01 T01850099  RH  057%=      5-min Rain = 0
KSW1 110637Z 14007KT 19/10 A3021 RMK A01 T01850100  RH  058%=      5-min Rain = 0
KSW1 110638Z 13007KT 18/10 A3021 RMK A01 T01840100  RH  058%=      5-min Rain = 0
KSW1 110639Z 13007KT 18/10 A3021 RMK A01 T01830099  RH  058%=      5-min Rain = 0
KSW1 110640Z 13008KT 18/10 A3021 RMK A01 T01820100  RH  058%=      5-min Rain = 0
KSW1 110641Z 13007KT 18/10 A3021 RMK A01 T01820099  RH  059%=      5-min Rain = 0
KSW1 110642Z 13007KT 18/10 A3021 RMK A01 T01810100  RH  059%=      5-min Rain = 0
KSW1 110643Z 13007KT 18/10 A3021 RMK A01 T01810100  RH  059%=      5-min Rain = 0
KSW1 110644Z 13007KT 18/10 A3021 RMK A01 T01800099  RH  059%=      5-min Rain = 0
KSW1 110645Z 13007KT 18/10 A3021 RMK A01 T01800099  RH  059%=      5-min Rain = 0
KSW1 110646Z 13007KT 18/10 A3021 RMK A01 T01790099  RH  060%=      5-min Rain = 0
KSW1 110647Z 13007KT 18/10 A3021 RMK A01 T01790099  RH  060%=      5-min Rain = 0
KSW1 110648Z 13007KT 18/10 A3021 RMK A01 T01780099  RH  060%=      5-min Rain = 0
KSW1 110649Z 13007KT 18/10 A3021 RMK A01 T01780099  RH  060%=      5-min Rain = 0
KSW1 110650Z 13006KT 18/10 A3021 RMK A01 T01770099  RH  060%=      5-min Rain = 0
KSW1 110651Z 13007KT 18/10 A3021 RMK A01 T01760099  RH  061%=      5-min Rain = 0
KSW1 110652Z 13007KT 18/10 A3021 RMK A01 T01750099  RH  061%=      5-min Rain = 0
KSW1 110653Z 13007KT 18/10 A3021 RMK A01 T01750099  RH  061%=      5-min Rain = 0
KSW1 110654Z 13007KT 17/10 A3021 RMK A01 T01740099  RH  061%=      5-min Rain = 0
KSW1 110655Z 13007KT 17/10 A3021 RMK A01 T01740099  RH  061%=      5-min Rain = 0
KSW1 110656Z 13007KT 17/10 A3021 RMK A01 T01740099  RH  062%=      5-min Rain = 0
KSW1 110657Z 13007KT 17/10 A3021 RMK A01 T01730099  RH  062%=      5-min Rain = 0
KSW1 110658Z 13007KT 17/10 A3021 RMK A01 T01730099  RH  062%=      5-min Rain = 0
KSW1 110659Z 13007KT 17/10 A3021 RMK A01 T01730099  RH  062%=      5-min Rain = 0
KSW1 110700Z 13007KT 17/10 A3021 RMK A01 T01730099  RH  062%=      5-min Rain = 0
KSW1 110701Z 13007KT 17/10 A3021 RMK A01 T01730099  RH  062%=      5-min Rain = 0
KSW1 110702Z 13007KT 17/10 A302 RMK A01 T01730099  RH  062%=      5-min Rain = 0
KSW1 110703Z 13007KT 17/10 A302 RMK A01 T01720099  RH  062%=      5-min Rain = 0
KSW1 110704Z 13007KT 17/10 A302 RMK A01 T01720099  RH  062%=      5-min Rain = 0
KSW1 110705Z 13007KT 17/10 A302 RMK A01 T01720099  RH  062%=      5-min Rain = 0
KSW1 110706Z 13007KT 17/10 A302 RMK A01 T01710099  RH  062%=      5-min Rain = 0
KSW1 110707Z 13008KT 17/10 A302 RMK A01 T01710099  RH  062%=      5-min Rain = 0
KSW1 110708Z 14008KT 17/10 A302 RMK A01 T01710099  RH  062%=      5-min Rain = 0
KSW1 110709Z 13007KT 17/10 A302 RMK A01 T01720099  RH  062%=      5-min Rain = 0
KSW1 110710Z 13008KT 17/10 A302 RMK A01 T01720100  RH  062%=      5-min Rain = 0
KSW1 110711Z 13007KT 17/10 A302 RMK A01 T01720099  RH  062%=      5-min Rain = 0
KSW1 110712Z 13007KT 17/10 A302 RMK A01 T01720099  RH  062%=      5-min Rain = 0
KSW1 110713Z 13007KT 17/10 A302 RMK A01 T01720100  RH  062%=      5-min Rain = 0
KSW1 110714Z 13007KT 17/10 A302 RMK A01 T01720099  RH  062%=      5-min Rain = 0
KSW1 110715Z 13008KT 17/10 A302 RMK A01 T01730100  RH  062%=      5-min Rain = 0
KSW1 110716Z 13007KT 17/10 A302 RMK A01 T01730099  RH  062%=      5-min Rain = 0
KSW1 110717Z 13007KT 17/10 A302 RMK A01 T01730099  RH  062%=      5-min Rain = 0
KSW1 110718Z 14007KT 17/10 A302 RMK A01 T01730100  RH  062%=      5-min Rain = 0
KSW1 110719Z 13007KT 17/10 A302 RMK A01 T01730100  RH  062%=      5-min Rain = 0
KSW1 110720Z 14007KT 17/10 A302 RMK A01 T01730100  RH  062%=      5-min Rain = 0
KSW1 110721Z 14007KT 17/10 A302 RMK A01 T01720100  RH  062%=      5-min Rain = 0
KSW1 110722Z 13007KT 17/10 A302 RMK A01 T01720099  RH  062%=      5-min Rain = 0
KSW1 110723Z 14008KT 17/10 A302 RMK A01 T01720099  RH  062%=      5-min Rain = 0
KSW1 110724Z 14007KT 17/10 A302 RMK A01 T01720099  RH  062%=      5-min Rain = 0
KSW1 110725Z 13007KT 17/10 A302 RMK A01 T01720100  RH  062%=      5-min Rain = 0
KSW1 110726Z 14007KT 17/10 A302 RMK A01 T01720099  RH  062%=      5-min Rain = 0
KSW1 110727Z 14007KT 17/10 A302 RMK A01 T01720099  RH  062%=      5-min Rain = 0
KSW1 110728Z 14008KT 17/10 A302 RMK A01 T01720100  RH  062%=      5-min Rain = 0
KSW1 110729Z 14007KT 17/10 A302 RMK A01 T01720099  RH  062%=      5-min Rain = 0
KSW1 110730Z 14008KT 17/10 A302 RMK A01 T01720100  RH  062%=      5-min Rain = 0
KSW1 110731Z 14008KT 17/10 A302 RMK A01 T01710099  RH  062%=      5-min Rain = 0
KSW1 110732Z 14008KT 17/10 A302 RMK A01 T01720099  RH  062%=      5-min Rain = 0
KSW1 110733Z 14007KT 17/10 A302 RMK A01 T01710099  RH  062%=      5-min Rain = 0
KSW1 110734Z 14008KT 17/10 A302 RMK A01 T01710099  RH  062%=      5-min Rain = 0
KSW1 110735Z 14008KT 17/10 A302 RMK A01 T01720099  RH  062%=      5-min Rain = 0
KSW1 110736Z 14008KT 17/10 A302 RMK A01 T01710099  RH  062%=      5-min Rain = 0
KSW1 110737Z 14008KT 17/10 A302 RMK A01 T01710099  RH  062%=      5-min Rain = 0
KSW1 110738Z 14008KT 17/10 A302 RMK A01 T01710099  RH  062%=      5-min Rain = 0
KSW1 110739Z 14008KT 17/10 A302 RMK A01 T01720099  RH  062%=      5-min Rain = 0
KSW1 110740Z 13008KT 17/10 A302 RMK A01 T01720099  RH  062%=      5-min Rain = 0
KSW1 110741Z 14008KT 17/10 A302 RMK A01 T01730099  RH  062%=      5-min Rain = 0
KSW1 110742Z 14009KT 17/10 A302 RMK A01 T01730099  RH  062%=      5-min Rain = 0
KSW1 110743Z 14008KT 17/10 A302 RMK A01 T01720099  RH  062%=      5-min Rain = 0
KSW1 110744Z 14009KT 17/10 A302 RMK A01 T01720099  RH  062%=      5-min Rain = 0
KSW1 110745Z 14009KT 17/10 A302 RMK A01 T01720099  RH  062%=      5-min Rain = 0
KSW1 110746Z 14009KT 17/10 A302 RMK A01 T01720099  RH  062%=      5-min Rain = 0
KSW1 110747Z 14008KT 17/10 A302 RMK A01 T01720099  RH  062%=      5-min Rain = 0
KSW1 110748Z 13009KT 17/10 A302 RMK A01 T01720099  RH  062%=      5-min Rain = 0
KSW1 110749Z 13008KT 17/10 A302 RMK A01 T01720099  RH  062%=      5-min Rain = 0
KSW1 110750Z 13009KT 17/10 A302 RMK A01 T01720099  RH  062%=      5-min Rain = 0
KSW1 110751Z 13009KT 17/10 A302 RMK A01 T01720100  RH  062%=      5-min Rain = 0
KSW1 110752Z 13009KT 17/10 A302 RMK A01 T01720099  RH  062%=      5-min Rain = 0
KSW1 110753Z 13009KT 17/10 A302 RMK A01 T01720099  RH  062%=      5-min Rain = 0
KSW1 110754Z 13008KT 17/10 A302 RMK A01 T01720100  RH  062%=      5-min Rain = 0
KSW1 110755Z 13009KT 17/10 A302 RMK A01 T01720100  RH  063%=      5-min Rain = 0
KSW1 110756Z 13009KT 17/10 A302 RMK A01 T01710099  RH  063%=      5-min Rain = 0
KSW1 110757Z 13009KT 17/10 A302 RMK A01 T01720099  RH  062%=      5-min Rain = 0
KSW1 110758Z 14009KT 17/10 A302 RMK A01 T01710099  RH  062%=      5-min Rain = 0
KSW1 110759Z 13008KT 17/10 A302 RMK A01 T01710099  RH  062%=      5-min Rain = 0
KSW1 110800Z 13008KT 17/10 A302 RMK A01 T01710099  RH  062%=      5-min Rain = 0
KSW1 110801Z 13008KT 17/10 A302 RMK A01 T01710099  RH  063%=      5-min Rain = 0
KSW1 110802Z 13008KT 17/10 A302 RMK A01 T01710099  RH  063%=      5-min Rain = 0
KSW1 110803Z 13008KT 17/10 A302 RMK A01 T01720100  RH  063%=      5-min Rain = 0
KSW1 110804Z 13007KT 17/10 A302 RMK A01 T01710099  RH  063%=      5-min Rain = 0
KSW1 110805Z 13008KT 17/10 A302 RMK A01 T01710099  RH  063%=      5-min Rain = 0
KSW1 110806Z 14008KT 17/10 A302 RMK A01 T01710099  RH  063%=      5-min Rain = 0
KSW1 110807Z 13008KT 17/10 A302 RMK A01 T01710099  RH  063%=      5-min Rain = 0
KSW1 110808Z 13008KT 17/10 A302 RMK A01 T01710099  RH  063%=      5-min Rain = 0
KSW1 110809Z 13008KT 17/10 A302 RMK A01 T01710099  RH  063%=      5-min Rain = 0
KSW1 110810Z 13008KT 17/10 A302 RMK A01 T01710099  RH  063%=      5-min Rain = 0
KSW1 110811Z 13008KT 17/10 A302 RMK A01 T01700099  RH  063%=      5-min Rain = 0
KSW1 110812Z 13007KT 17/10 A302 RMK A01 T01700099  RH  063%=      5-min Rain = 0
KSW1 110813Z 13007KT 17/10 A302 RMK A01 T01700099  RH  063%=      5-min Rain = 0
KSW1 110814Z 13007KT 17/10 A302 RMK A01 T01690099  RH  063%=      5-min Rain = 0
KSW1 110815Z 13007KT 17/10 A302 RMK A01 T01690099  RH  063%=      5-min Rain = 0
KSW1 110816Z 13007KT 17/10 A302 RMK A01 T01690099  RH  063%=      5-min Rain = 0
KSW1 110817Z 13007KT 17/10 A302 RMK A01 T01690099  RH  063%=      5-min Rain = 0
KSW1 110818Z 13007KT 17/10 A302 RMK A01 T01680099  RH  063%=      5-min Rain = 0
KSW1 110819Z 13007KT 17/10 A302 RMK A01 T01680099  RH  064%=      5-min Rain = 0
KSW1 110820Z 13007KT 17/10 A302 RMK A01 T01680099  RH  064%=      5-min Rain = 0
KSW1 110821Z 12007KT 17/10 A302 RMK A01 T01680099  RH  064%=      5-min Rain = 0
KSW1 110822Z 13006KT 17/10 A302 RMK A01 T01670099  RH  064%=      5-min Rain = 0
KSW1 110823Z 13007KT 17/10 A302 RMK A01 T01670098  RH  064%=      5-min Rain = 0
KSW1 110824Z 13007KT 17/10 A302 RMK A01 T01670099  RH  064%=      5-min Rain = 0
KSW1 110825Z 12007KT 17/10 A302 RMK A01 T01660099  RH  064%=      5-min Rain = 0
KSW1 110826Z 12007KT 17/10 A302 RMK A01 T01660098  RH  064%=      5-min Rain = 0
KSW1 110827Z 13007KT 17/10 A302 RMK A01 T01660098  RH  064%=      5-min Rain = 0
KSW1 110828Z 12008KT 17/10 A302 RMK A01 T01660098  RH  064%=      5-min Rain = 0
KSW1 110829Z 13007KT 17/10 A302 RMK A01 T01650098  RH  064%=      5-min Rain = 0
KSW1 110830Z 13007KT 17/10 A302 RMK A01 T01650098  RH  065%=      5-min Rain = 0
KSW1 110831Z 13007KT 17/10 A302 RMK A01 T01650098  RH  065%=      5-min Rain = 0
KSW1 110832Z 13007KT 17/10 A302 RMK A01 T01650099  RH  065%=      5-min Rain = 0
KSW1 110833Z 13007KT 17/10 A302 RMK A01 T01650099  RH  065%=      5-min Rain = 0
KSW1 110834Z 13007KT 16/10 A302 RMK A01 T01640098  RH  065%=      5-min Rain = 0
KSW1 110835Z 13007KT 16/10 A302 RMK A01 T01640098  RH  065%=      5-min Rain = 0
KSW1 110836Z 13007KT 16/10 A302 RMK A01 T01640098  RH  065%=      5-min Rain = 0
KSW1 110837Z 13007KT 16/10 A302 RMK A01 T01640099  RH  065%=      5-min Rain = 0
KSW1 110838Z 12007KT 16/10 A302 RMK A01 T01640099  RH  065%=      5-min Rain = 0
KSW1 110839Z 13007KT 16/10 A302 RMK A01 T01640098  RH  065%=      5-min Rain = 0
KSW1 110840Z 13006KT 16/10 A302 RMK A01 T01640098  RH  065%=      5-min Rain = 0
KSW1 110841Z 12006KT 16/10 A302 RMK A01 T01640098  RH  065%=      5-min Rain = 0
KSW1 110842Z 13007KT 16/10 A302 RMK A01 T01630098  RH  065%=      5-min Rain = 0
KSW1 110843Z 12006KT 16/10 A302 RMK A01 T01630099  RH  065%=      5-min Rain = 0
KSW1 110844Z 12007KT 16/10 A302 RMK A01 T01630098  RH  066%=      5-min Rain = 0
KSW1 110845Z 12007KT 16/10 A302 RMK A01 T01630098  RH  066%=      5-min Rain = 0
KSW1 110846Z 13007KT 16/10 A302 RMK A01 T01630098  RH  066%=      5-min Rain = 0
KSW1 110847Z 13007KT 16/10 A302 RMK A01 T01630098  RH  066%=      5-min Rain = 0
KSW1 110848Z 13007KT 16/10 A302 RMK A01 T01620098  RH  066%=      5-min Rain = 0
KSW1 110849Z 13007KT 16/10 A302 RMK A01 T01620098  RH  066%=      5-min Rain = 0
KSW1 110850Z 12007KT 16/10 A302 RMK A01 T01620098  RH  066%=      5-min Rain = 0
KSW1 110851Z 13007KT 16/10 A302 RMK A01 T01620098  RH  066%=      5-min Rain = 0
KSW1 110852Z 12007KT 16/10 A302 RMK A01 T01620098  RH  066%=      5-min Rain = 0
KSW1 110853Z 13008KT 16/10 A302 RMK A01 T01620098  RH  066%=      5-min Rain = 0
KSW1 110854Z 13007KT 16/10 A302 RMK A01 T01620098  RH  066%=      5-min Rain = 0
KSW1 110855Z 13007KT 16/10 A302 RMK A01 T01620098  RH  066%=      5-min Rain = 0
KSW1 110856Z 13007KT 16/10 A302 RMK A01 T01620098  RH  066%=      5-min Rain = 0
KSW1 110857Z 13007KT 16/10 A302 RMK A01 T01620098  RH  066%=      5-min Rain = 0
KSW1 110858Z 13007KT 16/10 A302 RMK A01 T01620098  RH  066%=      5-min Rain = 0
KSW1 110859Z 13007KT 16/10 A302 RMK A01 T01620098  RH  066%=      5-min Rain = 0
KSW1 110900Z 13007KT 16/10 A302 RMK A01 T01620098  RH  066%=      5-min Rain = 0
KSW1 110901Z 13007KT 16/10 A302 RMK A01 T01620098  RH  066%=      5-min Rain = 0
KSW1 110902Z 13007KT 16/10 A302 RMK A01 T01610098  RH  066%=      5-min Rain = 0
KSW1 110903Z 13007KT 16/10 A302 RMK A01 T01610098  RH  066%=      5-min Rain = 0
KSW1 110904Z 13007KT 16/10 A302 RMK A01 T01610098  RH  066%=      5-min Rain = 0
KSW1 110905Z 13007KT 16/10 A302 RMK A01 T01610098  RH  066%=      5-min Rain = 0
KSW1 110906Z 13007KT 16/10 A302 RMK A01 T01610098  RH  066%=      5-min Rain = 0
KSW1 110907Z 13006KT 16/10 A302 RMK A01 T01610098  RH  066%=      5-min Rain = 0
KSW1 110908Z 13007KT 16/10 A302 RMK A01 T01610098  RH  066%=      5-min Rain = 0
KSW1 110909Z 13007KT 16/10 A302 RMK A01 T01600098  RH  066%=      5-min Rain = 0
KSW1 110910Z 13006KT 16/10 A302 RMK A01 T01600097  RH  066%=      5-min Rain = 0
KSW1 110911Z 13007KT 16/10 A302 RMK A01 T01600097  RH  066%=      5-min Rain = 0
KSW1 110912Z 13007KT 16/10 A302 RMK A01 T01600098  RH  066%=      5-min Rain = 0
KSW1 110913Z 13006KT 16/10 A302 RMK A01 T01600098  RH  066%=      5-min Rain = 0
KSW1 110914Z 13007KT 16/10 A302 RMK A01 T01600098  RH  066%=      5-min Rain = 0
KSW1 110915Z 13006KT 16/10 A302 RMK A01 T01600097  RH  066%=      5-min Rain = 0
KSW1 110916Z 13006KT 16/10 A302 RMK A01 T01600097  RH  067%=      5-min Rain = 0
KSW1 110917Z 13006KT 16/10 A302 RMK A01 T01590097  RH  067%=      5-min Rain = 0
KSW1 110918Z 13006KT 16/10 A302 RMK A01 T01590097  RH  067%=      5-min Rain = 0
KSW1 110919Z 13006KT 16/10 A302 RMK A01 T01580097  RH  067%=      5-min Rain = 0
KSW1 110920Z 13006KT 16/10 A302 RMK A01 T01580097  RH  067%=      5-min Rain = 0
KSW1 110921Z 13006KT 16/10 A302 RMK A01 T01580098  RH  067%=      5-min Rain = 0
KSW1 110922Z 13007KT 16/10 A302 RMK A01 T01570097  RH  067%=      5-min Rain = 0
KSW1 110923Z 13007KT 16/10 A302 RMK A01 T01580098  RH  067%=      5-min Rain = 0
KSW1 110924Z 13007KT 16/10 A302 RMK A01 T01580098  RH  067%=      5-min Rain = 0
KSW1 110925Z 13007KT 16/10 A302 RMK A01 T01570097  RH  067%=      5-min Rain = 0
KSW1 110926Z 13008KT 16/10 A302 RMK A01 T01580098  RH  067%=      5-min Rain = 0
KSW1 110927Z 13008KT 16/10 A302 RMK A01 T01590098  RH  067%=      5-min Rain = 0
KSW1 110928Z 13008KT 16/10 A302 RMK A01 T01590098  RH  067%=      5-min Rain = 0
KSW1 110929Z 13009KT 16/10 A3019 RMK A01 T01610098  RH  066%=      5-min Rain = 0
KSW1 110930Z 13007KT 16/10 A3019 RMK A01 T01620098  RH  066%=      5-min Rain = 0
KSW1 110931Z 14008KT 16/10 A3019 RMK A01 T01630098  RH  065%=      5-min Rain = 0
KSW1 110932Z 13008KT 16/10 A3019 RMK A01 T01640098  RH  065%=      5-min Rain = 0
KSW1 110933Z 13008KT 16/10 A3019 RMK A01 T01640098  RH  065%=      5-min Rain = 0
KSW1 110934Z 13008KT 16/10 A3019 RMK A01 T01640098  RH  065%=      5-min Rain = 0
KSW1 110935Z 13007KT 17/10 A3019 RMK A01 T01650099  RH  065%=      5-min Rain = 0
KSW1 110936Z 13007KT 16/10 A3019 RMK A01 T01640098  RH  065%=      5-min Rain = 0
KSW1 110937Z 13007KT 16/10 A3019 RMK A01 T01640098  RH  065%=      5-min Rain = 0
KSW1 110938Z 13007KT 16/10 A3019 RMK A01 T01640098  RH  065%=      5-min Rain = 0
KSW1 110939Z 13007KT 16/10 A3019 RMK A01 T01640098  RH  065%=      5-min Rain = 0
KSW1 110940Z 13008KT 16/10 A3019 RMK A01 T01640098  RH  065%=      5-min Rain = 0
KSW1 110941Z 13008KT 16/10 A3019 RMK A01 T01640099  RH  065%=      5-min Rain = 0
KSW1 110942Z 13008KT 16/10 A3019 RMK A01 T01640099  RH  065%=      5-min Rain = 0
KSW1 110943Z 14008KT 16/10 A3019 RMK A01 T01640098  RH  065%=      5-min Rain = 0
KSW1 110944Z 13008KT 16/10 A3019 RMK A01 T01640098  RH  065%=      5-min Rain = 0
KSW1 110945Z 13008KT 16/10 A3019 RMK A01 T01640098  RH  065%=      5-min Rain = 0
KSW1 110946Z 13008KT 16/10 A3019 RMK A01 T01640099  RH  065%=      5-min Rain = 0
KSW1 110947Z 13008KT 17/10 A3019 RMK A01 T01650099  RH  065%=      5-min Rain = 0
KSW1 110948Z 13008KT 17/10 A3019 RMK A01 T01650099  RH  065%=      5-min Rain = 0
KSW1 110949Z 13008KT 16/10 A3019 RMK A01 T01640099  RH  065%=      5-min Rain = 0
KSW1 110950Z 13008KT 16/10 A3019 RMK A01 T01640099  RH  065%=      5-min Rain = 0
KSW1 110951Z 14008KT 16/10 A3019 RMK A01 T01640099  RH  065%=      5-min Rain = 0
KSW1 110952Z 13008KT 17/10 A302 RMK A01 T01650099  RH  065%=      5-min Rain = 0
KSW1 110953Z 13008KT 16/10 A302 RMK A01 T01640099  RH  065%=      5-min Rain = 0
KSW1 110954Z 14008KT 17/10 A302 RMK A01 T01650099  RH  065%=      5-min Rain = 0
KSW1 110955Z 13007KT 17/10 A302 RMK A01 T01650099  RH  065%=      5-min Rain = 0
KSW1 110956Z 14007KT 17/10 A302 RMK A01 T01650099  RH  065%=      5-min Rain = 0
KSW1 110957Z 14007KT 17/10 A302 RMK A01 T01650099  RH  065%=      5-min Rain = 0
KSW1 110958Z 14007KT 17/10 A302 RMK A01 T01650099  RH  065%=      5-min Rain = 0
KSW1 110959Z 14008KT 17/10 A302 RMK A01 T01650099  RH  065%=      5-min Rain = 0
KSW1 111000Z 14007KT 17/10 A302 RMK A01 T01650099  RH  065%=      5-min Rain = 0
KSW1 111001Z 14007KT 17/10 A302 RMK A01 T01650099  RH  065%=      5-min Rain = 0
KSW1 111002Z 14008KT 17/10 A302 RMK A01 T01650099  RH  065%=      5-min Rain = 0
KSW1 111003Z 14008KT 17/10 A302 RMK A01 T01650099  RH  065%=      5-min Rain = 0
KSW1 111004Z 14008KT 17/10 A302 RMK A01 T01650099  RH  065%=      5-min Rain = 0
KSW1 111005Z 14007KT 17/10 A302 RMK A01 T01650099  RH  065%=      5-min Rain = 0
KSW1 111006Z 14006KT 17/10 A302 RMK A01 T01650099  RH  065%=      5-min Rain = 0
KSW1 111007Z 14007KT 17/10 A302 RMK A01 T01650099  RH  065%=      5-min Rain = 0
KSW1 111008Z 14007KT 16/10 A302 RMK A01 T01640099  RH  065%=      5-min Rain = 0
KSW1 111009Z 14007KT 16/10 A302 RMK A01 T01640099  RH  065%=      5-min Rain = 0
KSW1 111010Z 15007KT 17/10 A302 RMK A01 T01650099  RH  065%=      5-min Rain = 0
KSW1 111011Z 14006KT 16/10 A3019 RMK A01 T01640099  RH  065%=      5-min Rain = 0
KSW1 111012Z 14005KT 16/10 A3019 RMK A01 T01640099  RH  065%=      5-min Rain = 0
KSW1 111013Z 14005KT 16/10 A3019 RMK A01 T01640099  RH  065%=      5-min Rain = 0
KSW1 111014Z 14005KT 16/10 A3019 RMK A01 T01630099  RH  066%=      5-min Rain = 0
KSW1 111015Z 14005KT 16/10 A3019 RMK A01 T01630099  RH  066%=      5-min Rain = 0
KSW1 111016Z 15005KT 16/10 A3019 RMK A01 T01620099  RH  066%=      5-min Rain = 0
KSW1 111017Z 14005KT 16/10 A3019 RMK A01 T01620099  RH  066%=      5-min Rain = 0
KSW1 111018Z 14005KT 16/10 A3019 RMK A01 T01620099  RH  066%=      5-min Rain = 0
KSW1 111019Z 14005KT 16/10 A3019 RMK A01 T01620099  RH  066%=      5-min Rain = 0
KSW1 111020Z 14005KT 16/10 A3019 RMK A01 T01610098  RH  066%=      5-min Rain = 0
KSW1 111021Z 14005KT 16/10 A3019 RMK A01 T01610099  RH  067%=      5-min Rain = 0
KSW1 111022Z 14005KT 16/10 A3019 RMK A01 T01600099  RH  067%=      5-min Rain = 0
KSW1 111023Z 14005KT 16/10 A3019 RMK A01 T01600098  RH  067%=      5-min Rain = 0
KSW1 111024Z 14006KT 16/10 A3019 RMK A01 T01590098  RH  067%=      5-min Rain = 0
KSW1 111025Z 14005KT 16/10 A3019 RMK A01 T01590098  RH  067%=      5-min Rain = 0
KSW1 111026Z 14006KT 16/10 A3019 RMK A01 T01590098  RH  067%=      5-min Rain = 0
KSW1 111027Z 14006KT 16/10 A3019 RMK A01 T01590099  RH  067%=      5-min Rain = 0
KSW1 111028Z 14006KT 16/10 A3019 RMK A01 T01590099  RH  067%=      5-min Rain = 0
KSW1 111029Z 14006KT 16/10 A3019 RMK A01 T01590099  RH  067%=      5-min Rain = 0
KSW1 111030Z 14006KT 16/10 A3019 RMK A01 T01580099  RH  068%=      5-min Rain = 0
KSW1 111031Z 14006KT 16/10 A3019 RMK A01 T01580099  RH  068%=      5-min Rain = 0
KSW1 111032Z 14006KT 16/10 A3019 RMK A01 T01580099  RH  068%=      5-min Rain = 0
KSW1 111033Z 14006KT 16/10 A3019 RMK A01 T01580099  RH  068%=      5-min Rain = 0
KSW1 111034Z 14006KT 16/10 A3019 RMK A01 T01580099  RH  068%=      5-min Rain = 0
KSW1 111035Z 14006KT 16/10 A3019 RMK A01 T01580099  RH  068%=      5-min Rain = 0
KSW1 111036Z 14006KT 16/10 A3019 RMK A01 T01570099  RH  068%=      5-min Rain = 0
KSW1 111037Z 14006KT 16/10 A3019 RMK A01 T01570099  RH  068%=      5-min Rain = 0
KSW1 111038Z 14006KT 16/10 A3019 RMK A01 T01570099  RH  068%=      5-min Rain = 0
KSW1 111039Z 14006KT 16/10 A3019 RMK A01 T01570099  RH  068%=      5-min Rain = 0
KSW1 111040Z 14006KT 16/10 A3019 RMK A01 T01570099  RH  068%=      5-min Rain = 0
KSW1 111041Z 14006KT 16/10 A3019 RMK A01 T01570099  RH  068%=      5-min Rain = 0
KSW1 111042Z 14006KT 16/10 A3019 RMK A01 T01560099  RH  068%=      5-min Rain = 0
KSW1 111043Z 14006KT 16/10 A3019 RMK A01 T01560099  RH  069%=      5-min Rain = 0
KSW1 111044Z 14006KT 16/10 A3019 RMK A01 T01560099  RH  069%=      5-min Rain = 0
KSW1 111045Z 14006KT 16/10 A3019 RMK A01 T01560099  RH  069%=      5-min Rain = 0
KSW1 111046Z 14006KT 16/10 A3019 RMK A01 T01550099  RH  069%=      5-min Rain = 0
KSW1 111047Z 14006KT 16/10 A3019 RMK A01 T01560099  RH  069%=      5-min Rain = 0
KSW1 111048Z 14006KT 16/10 A3019 RMK A01 T01550099  RH  069%=      5-min Rain = 0
KSW1 111049Z 14006KT 16/10 A3019 RMK A01 T01550099  RH  069%=      5-min Rain = 0
KSW1 111050Z 15006KT 16/10 A3019 RMK A01 T01550099  RH  069%=      5-min Rain = 0
KSW1 111051Z 14007KT 16/10 A3019 RMK A01 T01550099  RH  069%=      5-min Rain = 0
KSW1 111052Z 14007KT 16/10 A3019 RMK A01 T01550099  RH  069%=      5-min Rain = 0
KSW1 111053Z 14007KT 16/10 A3019 RMK A01 T01550099  RH  069%=      5-min Rain = 0
KSW1 111054Z 14007KT 16/10 A3019 RMK A01 T01560099  RH  069%=      5-min Rain = 0
KSW1 111055Z 14007KT 16/10 A3019 RMK A01 T01570099  RH  069%=      5-min Rain = 0
KSW1 111056Z 14006KT 16/10 A3019 RMK A01 T01570099  RH  069%=      5-min Rain = 0
KSW1 111057Z 14006KT 16/10 A3019 RMK A01 T01570099  RH  069%=      5-min Rain = 0
KSW1 111058Z 14007KT 16/10 A3019 RMK A01 T01560099  RH  069%=      5-min Rain = 0
KSW1 111059Z 15007KT 16/10 A3019 RMK A01 T01560099  RH  069%=      5-min Rain = 0
KSW1 111100Z 15007KT 16/10 A3019 RMK A01 T01560100  RH  069%=      5-min Rain = 0
KSW1 111101Z 14007KT 16/10 A3019 RMK A01 T01560100  RH  069%=      5-min Rain = 0
KSW1 111102Z 15007KT 16/10 A3019 RMK A01 T01570100  RH  069%=      5-min Rain = 0
KSW1 111103Z 15006KT 16/10 A3019 RMK A01 T01580100  RH  068%=      5-min Rain = 0
KSW1 111104Z 15006KT 16/10 A3019 RMK A01 T01580100  RH  068%=      5-min Rain = 0
KSW1 111105Z 15006KT 16/10 A3019 RMK A01 T01590100  RH  068%=      5-min Rain = 0
KSW1 111106Z 15006KT 16/10 A302 RMK A01 T01580100  RH  068%=      5-min Rain = 0
KSW1 111107Z 15006KT 16/10 A302 RMK A01 T01580100  RH  068%=      5-min Rain = 0
KSW1 111108Z 15005KT 16/10 A302 RMK A01 T01580100  RH  068%=      5-min Rain = 0
KSW1 111109Z 15005KT 16/10 A302 RMK A01 T01570100  RH  069%=      5-min Rain = 0
KSW1 111110Z 15004KT 16/10 A302 RMK A01 T01570100  RH  069%=      5-min Rain = 0
KSW1 111111Z 16005KT 16/10 A302 RMK A01 T01560100  RH  069%=      5-min Rain = 0
KSW1 111112Z 16004KT 16/10 A302 RMK A01 T01560100  RH  069%=      5-min Rain = 0
KSW1 111113Z 15004KT 16/10 A302 RMK A01 T01550099  RH  069%=      5-min Rain = 0
KSW1 111114Z 15005KT 16/10 A302 RMK A01 T01550100  RH  069%=      5-min Rain = 0
KSW1 111115Z 15005KT 16/10 A302 RMK A01 T01550100  RH  069%=      5-min Rain = 0
KSW1 111116Z 15005KT 16/10 A302 RMK A01 T01550100  RH  069%=      5-min Rain = 0
KSW1 111117Z 15005KT 16/10 A302 RMK A01 T01550100  RH  069%=      5-min Rain = 0
KSW1 111118Z 15005KT 16/10 A302 RMK A01 T01550100  RH  069%=      5-min Rain = 0
KSW1 111119Z 16005KT 16/10 A302 RMK A01 T01550099  RH  069%=      5-min Rain = 0
KSW1 111120Z 16005KT 16/10 A302 RMK A01 T01550100  RH  069%=      5-min Rain = 0
KSW1 111121Z 16005KT 16/10 A302 RMK A01 T01550100  RH  069%=      5-min Rain = 0
KSW1 111122Z 16006KT 16/10 A302 RMK A01 T01550100  RH  069%=      5-min Rain = 0
KSW1 111123Z 15006KT 16/10 A302 RMK A01 T01550100  RH  069%=      5-min Rain = 0
KSW1 111124Z 15006KT 16/10 A302 RMK A01 T01550099  RH  069%=      5-min Rain = 0
KSW1 111125Z 15006KT 16/10 A302 RMK A01 T01550099  RH  069%=      5-min Rain = 0
KSW1 111126Z 15006KT 16/10 A302 RMK A01 T01550099  RH  069%=      5-min Rain = 0
KSW1 111127Z 15006KT 16/10 A302 RMK A01 T01550099  RH  069%=      5-min Rain = 0
KSW1 111128Z 15005KT 16/10 A302 RMK A01 T01550099  RH  070%=      5-min Rain = 0
KSW1 111129Z 15005KT 15/10 A302 RMK A01 T01540099  RH  070%=      5-min Rain = 0
KSW1 111130Z 15005KT 15/10 A302 RMK A01 T01530099  RH  070%=      5-min Rain = 0
KSW1 111131Z 15005KT 15/10 A302 RMK A01 T01530099  RH  070%=      5-min Rain = 0
KSW1 111132Z 15005KT 15/10 A302 RMK A01 T01530099  RH  070%=      5-min Rain = 0
KSW1 111133Z 15005KT 15/10 A302 RMK A01 T01520099  RH  071%=      5-min Rain = 0
KSW1 111134Z 15005KT 15/10 A302 RMK A01 T01530099  RH  071%=      5-min Rain = 0
KSW1 111135Z 15005KT 15/10 A302 RMK A01 T01530100  RH  071%=      5-min Rain = 0
KSW1 111136Z 15005KT 15/10 A302 RMK A01 T01520099  RH  071%=      5-min Rain = 0
KSW1 111137Z 15005KT 15/10 A302 RMK A01 T01530099  RH  070%=      5-min Rain = 0
KSW1 111138Z 15005KT 15/10 A302 RMK A01 T01520099  RH  070%=      5-min Rain = 0
KSW1 111139Z 15005KT 15/10 A302 RMK A01 T01520099  RH  070%=      5-min Rain = 0
KSW1 111140Z 15005KT 15/10 A302 RMK A01 T01520099  RH  070%=      5-min Rain = 0
KSW1 111141Z 15004KT 15/10 A302 RMK A01 T01520099  RH  071%=      5-min Rain = 0
KSW1 111142Z 15004KT 15/10 A3021 RMK A01 T01520099  RH  071%=      5-min Rain = 0
KSW1 111143Z 16004KT 15/10 A3021 RMK A01 T01520099  RH  071%=      5-min Rain = 0
KSW1 111144Z 16003KT 15/10 A3021 RMK A01 T01520099  RH  071%=      5-min Rain = 0
KSW1 111145Z 17003KT 15/10 A3021 RMK A01 T01520099  RH  071%=      5-min Rain = 0
KSW1 111146Z 17003KT 15/10 A3021 RMK A01 T01520099  RH  070%=      5-min Rain = 0
KSW1 111147Z 17002KT 15/10 A3021 RMK A01 T01520099  RH  070%=      5-min Rain = 0
KSW1 111148Z 18002KT 15/10 A3021 RMK A01 T01520099  RH  071%=      5-min Rain = 0
KSW1 111149Z 17003KT 15/10 A3021 RMK A01 T01510098  RH  071%=      5-min Rain = 0
KSW1 111150Z 17003KT 15/10 A3021 RMK A01 T01510098  RH  071%=      5-min Rain = 0
KSW1 111151Z 17002KT 15/10 A3021 RMK A01 T01510099  RH  071%=      5-min Rain = 0
KSW1 111152Z 18002KT 15/10 A3021 RMK A01 T01500098  RH  071%=      5-min Rain = 0
KSW1 111153Z 18001KT 15/10 A3021 RMK A01 T01500098  RH  071%=      5-min Rain = 0
KSW1 111154Z 17001KT 15/10 A3021 RMK A01 T01500098  RH  071%=      5-min Rain = 0
KSW1 111155Z 16001KT 15/10 A3021 RMK A01 T01500098  RH  071%=      5-min Rain = 0
KSW1 111156Z 16001KT 15/10 A3021 RMK A01 T01500098  RH  071%=      5-min Rain = 0
KSW1 111157Z 15002KT 15/10 A3021 RMK A01 T01490098  RH  071%=      5-min Rain = 0
KSW1 111158Z 16003KT 15/10 A3021 RMK A01 T01490098  RH  071%=      5-min Rain = 0
KSW1 111159Z 15002KT 15/10 A3021 RMK A01 T01510099  RH  071%=      5-min Rain = 0
KSW1 111200Z 15002KT 15/10 A3021 RMK A01 T01520099  RH  071%=      5-min Rain = 0
KSW1 111201Z 14002KT 15/10 A3021 RMK A01 T01540099  RH  070%=      5-min Rain = 0
KSW1 111202Z 14002KT 15/10 A3021 RMK A01 T01540099  RH  070%=      5-min Rain = 0
KSW1 111203Z 15003KT 16/10 A3021 RMK A01 T01550099  RH  069%=      5-min Rain = 0
KSW1 111204Z 15002KT 16/10 A3021 RMK A01 T01550099  RH  069%=      5-min Rain = 0
KSW1 111205Z 15002KT 16/10 A3021 RMK A01 T01550099  RH  069%=      5-min Rain = 0
KSW1 111206Z 15003KT 16/10 A3021 RMK A01 T01550099  RH  069%=      5-min Rain = 0
KSW1 111207Z 14002KT 16/10 A3021 RMK A01 T01550098  RH  069%=      5-min Rain = 0
KSW1 111208Z 15003KT 15/10 A3021 RMK A01 T01530098  RH  069%=      5-min Rain = 0
KSW1 111209Z 16002KT 15/10 A3021 RMK A01 T01530098  RH  070%=      5-min Rain = 0
KSW1 111210Z 16002KT 15/10 A3021 RMK A01 T01520098  RH  070%=      5-min Rain = 0
KSW1 111211Z 16002KT 15/10 A3021 RMK A01 T01520098  RH  070%=      5-min Rain = 0
KSW1 111212Z 17002KT 15/10 A3021 RMK A01 T01510098  RH  070%=      5-min Rain = 0
KSW1 111213Z 17002KT 15/10 A3021 RMK A01 T01510098  RH  071%=      5-min Rain = 0
KSW1 111214Z 17002KT 15/10 A3021 RMK A01 T01500098  RH  071%=      5-min Rain = 0
KSW1 111215Z 18002KT 15/10 A3021 RMK A01 T01490098  RH  071%=      5-min Rain = 0
KSW1 111216Z 18002KT 15/10 A3021 RMK A01 T01490098  RH  072%=      5-min Rain = 0
KSW1 111217Z 19002KT 15/10 A3021 RMK A01 T01480097  RH  072%=      5-min Rain = 0
KSW1 111218Z 19002KT 15/10 A3021 RMK A01 T01470097  RH  072%=      5-min Rain = 0
KSW1 111219Z 19002KT 15/10 A3021 RMK A01 T01460097  RH  072%=      5-min Rain = 0
KSW1 111220Z 18002KT 15/10 A3021 RMK A01 T01460097  RH  073%=      5-min Rain = 0
KSW1 111221Z 18002KT 15/10 A3021 RMK A01 T01460097  RH  073%=      5-min Rain = 0
KSW1 111222Z 18002KT 15/10 A3021 RMK A01 T01450097  RH  073%=      5-min Rain = 0
KSW1 111223Z 18003KT 15/10 A3021 RMK A01 T01450098  RH  073%=      5-min Rain = 0
KSW1 111224Z 18003KT 15/10 A3021 RMK A01 T01450098  RH  073%=      5-min Rain = 0
KSW1 111225Z 18003KT 15/10 A3021 RMK A01 T01450098  RH  073%=      5-min Rain = 0
KSW1 111226Z 18003KT 15/10 A3021 RMK A01 T01450099  RH  074%=      5-min Rain = 0
KSW1 111227Z 18002KT 14/10 A3021 RMK A01 T01440098  RH  074%=      5-min Rain = 0
KSW1 111228Z 18002KT 15/10 A3021 RMK A01 T01450098  RH  074%=      5-min Rain = 0
KSW1 111229Z 17002KT 15/10 A3021 RMK A01 T01450098  RH  074%=      5-min Rain = 0
KSW1 111230Z 17002KT 15/10 A3021 RMK A01 T01450098  RH  074%=      5-min Rain = 0
KSW1 111231Z 17002KT 15/10 A3021 RMK A01 T01450098  RH  074%=      5-min Rain = 0
KSW1 111232Z 16002KT 14/10 A3021 RMK A01 T01440098  RH  074%=      5-min Rain = 0
KSW1 111233Z 16002KT 14/10 A3021 RMK A01 T01440099  RH  074%=      5-min Rain = 0
KSW1 111234Z 16002KT 14/10 A3021 RMK A01 T01440098  RH  074%=      5-min Rain = 0
KSW1 111235Z 17003KT 14/10 A3021 RMK A01 T01440098  RH  074%=      5-min Rain = 0
KSW1 111236Z 17002KT 14/10 A3021 RMK A01 T01440098  RH  074%=      5-min Rain = 0
KSW1 111237Z 17002KT 15/10 A3021 RMK A01 T01450098  RH  073%=      5-min Rain = 0
KSW1 111238Z 17001KT 15/10 A3021 RMK A01 T01450098  RH  073%=      5-min Rain = 0
KSW1 111239Z 16001KT 15/10 A3021 RMK A01 T01460098  RH  073%=      5-min Rain = 0
KSW1 111240Z 16002KT 15/10 A3021 RMK A01 T01460098  RH  073%=      5-min Rain = 0
KSW1 111241Z 16002KT 15/10 A3021 RMK A01 T01460098  RH  073%=      5-min Rain = 0
KSW1 111242Z 16002KT 15/10 A3021 RMK A01 T01470098  RH  073%=      5-min Rain = 0
KSW1 111243Z 16001KT 15/10 A3021 RMK A01 T01470098  RH  073%=      5-min Rain = 0
KSW1 111244Z 16001KT 15/10 A3021 RMK A01 T01470098  RH  072%=      5-min Rain = 0
KSW1 111245Z 16002KT 15/10 A3021 RMK A01 T01470098  RH  072%=      5-min Rain = 0
KSW1 111246Z 15002KT 15/10 A3021 RMK A01 T01480098  RH  072%=      5-min Rain = 0
KSW1 111247Z 15002KT 15/10 A3021 RMK A01 T01480098  RH  072%=      5-min Rain = 0
KSW1 111248Z 15002KT 15/10 A3021 RMK A01 T01490098  RH  072%=      5-min Rain = 0
KSW1 111249Z 15003KT 15/10 A3021 RMK A01 T01490098  RH  071%=      5-min Rain = 0
KSW1 111250Z 15003KT 15/10 A3021 RMK A01 T01490098  RH  071%=      5-min Rain = 0
KSW1 111251Z 14003KT 15/10 A3021 RMK A01 T01500098  RH  071%=      5-min Rain = 0
KSW1 111252Z 14003KT 15/10 A3021 RMK A01 T01500098  RH  071%=      5-min Rain = 0
KSW1 111253Z 14003KT 15/10 A3021 RMK A01 T01500098  RH  071%=      5-min Rain = 0
KSW1 111254Z 14003KT 15/10 A3021 RMK A01 T01500098  RH  071%=      5-min Rain = 0
KSW1 111255Z 14003KT 15/10 A3021 RMK A01 T01490098  RH  072%=      5-min Rain = 0
KSW1 111256Z 14003KT 15/10 A3021 RMK A01 T01480098  RH  072%=      5-min Rain = 0
KSW1 111257Z 14003KT 15/10 A3021 RMK A01 T01480099  RH  072%=      5-min Rain = 0
KSW1 111258Z 15003KT 15/10 A3021 RMK A01 T01480099  RH  072%=      5-min Rain = 0
KSW1 111259Z 14003KT 15/10 A3021 RMK A01 T01480099  RH  073%=      5-min Rain = 0
KSW1 111300Z 14003KT 15/10 A3021 RMK A01 T01480099  RH  072%=      5-min Rain = 0
KSW1 111301Z 14002KT 15/10 A3022 RMK A01 T01490099  RH  072%=      5-min Rain = 0
KSW1 111302Z 14002KT 15/10 A3022 RMK A01 T01490100  RH  072%=      5-min Rain = 0
KSW1 111303Z 14002KT 15/10 A3022 RMK A01 T01500100  RH  072%=      5-min Rain = 0
KSW1 111304Z 14002KT 15/10 A3022 RMK A01 T01510100  RH  072%=      5-min Rain = 0
KSW1 111305Z 14002KT 15/10 A3022 RMK A01 T01520101  RH  071%=      5-min Rain = 0
KSW1 111306Z 14002KT 15/10 A3022 RMK A01 T01530101  RH  071%=      5-min Rain = 0
KSW1 111307Z 14003KT 15/10 A3022 RMK A01 T01540100  RH  070%=      5-min Rain = 0
KSW1 111308Z 14002KT 16/10 A3022 RMK A01 T01550100  RH  070%=      5-min Rain = 0
KSW1 111309Z 14002KT 16/10 A3022 RMK A01 T01560101  RH  070%=      5-min Rain = 0
KSW1 111310Z 14002KT 16/10 A3022 RMK A01 T01570101  RH  070%=      5-min Rain = 0
KSW1 111311Z 14002KT 16/10 A3022 RMK A01 T01580103  RH  070%=      5-min Rain = 0
KSW1 111312Z 14002KT 16/10 A3022 RMK A01 T01590102  RH  069%=      5-min Rain = 0
KSW1 111313Z 14002KT 16/10 A3022 RMK A01 T01600102  RH  069%=      5-min Rain = 0
KSW1 111314Z 15002KT 16/10 A3022 RMK A01 T01610102  RH  068%=      5-min Rain = 0
KSW1 111315Z 15001KT 16/10 A3022 RMK A01 T01610102  RH  068%=      5-min Rain = 0
KSW1 111316Z 16001KT 16/10 A3022 RMK A01 T01610103  RH  068%=      5-min Rain = 0
KSW1 111317Z 18001KT 16/10 A3022 RMK A01 T01620102  RH  068%=      5-min Rain = 0
KSW1 111318Z 19000KT 16/10 A3022 RMK A01 T01620103  RH  068%=      5-min Rain = 0
KSW1 111319Z 19000KT 16/10 A3022 RMK A01 T01620104  RH  068%=      5-min Rain = 0
KSW1 111320Z 00000KT 16/11 A3022 RMK A01 T01620105  RH  069%=      5-min Rain = 0
KSW1 111321Z 23000KT 16/11 A3022 RMK A01 T01620105  RH  069%=      5-min Rain = 0
KSW1 111322Z 23001KT 16/10 A3022 RMK A01 T01610104  RH  069%=      5-min Rain = 0
KSW1 111323Z 23001KT 16/10 A3022 RMK A01 T01600104  RH  069%=      5-min Rain = 0
KSW1 111324Z 22001KT 16/11 A3022 RMK A01 T01600105  RH  070%=      5-min Rain = 0
KSW1 111325Z 21001KT 16/10 A3022 RMK A01 T01600103  RH  069%=      5-min Rain = 0
KSW1 111326Z 19001KT 16/10 A3022 RMK A01 T01600102  RH  069%=      5-min Rain = 0
KSW1 111327Z 18001KT 16/10 A3022 RMK A01 T01590103  RH  069%=      5-min Rain = 0
KSW1 111328Z 17001KT 16/10 A3022 RMK A01 T01600103  RH  069%=      5-min Rain = 0
KSW1 111329Z 18001KT 16/10 A3022 RMK A01 T01610103  RH  068%=      5-min Rain = 0
KSW1 111330Z 16001KT 16/10 A3022 RMK A01 T01620103  RH  068%=      5-min Rain = 0
KSW1 111331Z 16001KT 16/10 A3022 RMK A01 T01620103  RH  068%=      5-min Rain = 0
KSW1 111332Z 17002KT 16/10 A3022 RMK A01 T01630104  RH  068%=      5-min Rain = 0
KSW1 111333Z 17002KT 16/10 A3022 RMK A01 T01630103  RH  068%=      5-min Rain = 0
KSW1 111334Z 17002KT 16/10 A3022 RMK A01 T01640103  RH  067%=      5-min Rain = 0
KSW1 111335Z 16002KT 16/10 A3022 RMK A01 T01640104  RH  068%=      5-min Rain = 0
KSW1 111336Z 16002KT 17/11 A3022 RMK A01 T01650105  RH  067%=      5-min Rain = 0
KSW1 111337Z 15001KT 17/11 A3022 RMK A01 T01660105  RH  067%=      5-min Rain = 0
KSW1 111338Z 16002KT 17/11 A3022 RMK A01 T01670106  RH  067%=      5-min Rain = 0
KSW1 111339Z 13001KT 17/11 A3022 RMK A01 T01680108  RH  067%=      5-min Rain = 0
KSW1 111340Z 14001KT 17/11 A3022 RMK A01 T01700108  RH  067%=      5-min Rain = 0
KSW1 111341Z 13001KT 17/11 A3022 RMK A01 T01710108  RH  067%=      5-min Rain = 0
KSW1 111342Z 14000KT 17/11 A3022 RMK A01 T01720109  RH  066%=      5-min Rain = 0
KSW1 111343Z 14001KT 17/11 A3022 RMK A01 T01730109  RH  066%=      5-min Rain = 0
KSW1 111344Z 14001KT 17/11 A3022 RMK A01 T01740109  RH  066%=      5-min Rain = 0
KSW1 111345Z 12001KT 18/11 A3022 RMK A01 T01760110  RH  066%=      5-min Rain = 0
KSW1 111346Z 15001KT 18/11 A3022 RMK A01 T01770112  RH  066%=      5-min Rain = 0
KSW1 111347Z 14001KT 18/11 A3022 RMK A01 T01780113  RH  065%=      5-min Rain = 0
KSW1 111348Z 14002KT 18/11 A3022 RMK A01 T01790112  RH  065%=      5-min Rain = 0
KSW1 111349Z 14003KT 18/11 A3022 RMK A01 T01800111  RH  064%=      5-min Rain = 0
KSW1 111350Z 14003KT 18/11 A3022 RMK A01 T01820113  RH  064%=      5-min Rain = 0
KSW1 111351Z 14003KT 18/11 A3022 RMK A01 T01830112  RH  063%=      5-min Rain = 0
KSW1 111352Z 14002KT 18/11 A3022 RMK A01 T01830111  RH  063%=      5-min Rain = 0
KSW1 111353Z 13001KT 18/11 A3022 RMK A01 T01840112  RH  063%=      5-min Rain = 0
KSW1 111354Z 13001KT 18/11 A3022 RMK A01 T01840114  RH  063%=      5-min Rain = 0
KSW1 111355Z 14001KT 19/11 A3022 RMK A01 T01860114  RH  063%=      5-min Rain = 0
KSW1 111356Z 14002KT 19/11 A3022 RMK A01 T01870114  RH  062%=      5-min Rain = 0
KSW1 111357Z 13001KT 19/12 A3022 RMK A01 T01890115  RH  062%=      5-min Rain = 0
KSW1 111358Z 15001KT 19/12 A3022 RMK A01 T01900116  RH  062%=      5-min Rain = 0
KSW1 111359Z 15001KT 19/12 A3022 RMK A01 T01920116  RH  061%=      5-min Rain = 0
KSW1 111400Z 14002KT 19/11 A3022 RMK A01 T01920113  RH  060%=      5-min Rain = 0
KSW1 111401Z 16001KT 19/11 A3022 RMK A01 T01920114  RH  061%=      5-min Rain = 0
KSW1 111402Z 16001KT 19/12 A3022 RMK A01 T01930115  RH  060%=      5-min Rain = 0
KSW1 111403Z 15002KT 20/11 A3022 RMK A01 T01950114  RH  060%=      5-min Rain = 0
KSW1 111404Z 15001KT 20/12 A3022 RMK A01 T01950115  RH  060%=      5-min Rain = 0
KSW1 111405Z 16001KT 20/12 A3022 RMK A01 T01960115  RH  060%=      5-min Rain = 0
KSW1 111406Z 16001KT 20/12 A3023 RMK A01 T01970117  RH  060%=      5-min Rain = 0
KSW1 111407Z 16002KT 20/12 A3023 RMK A01 T01990118  RH  060%=      5-min Rain = 0
KSW1 111408Z 16003KT 20/12 A3023 RMK A01 T02000116  RH  058%=      5-min Rain = 0
KSW1 111409Z 15002KT 20/11 A3023 RMK A01 T02000114  RH  058%=      5-min Rain = 0
KSW1 111410Z 16002KT 20/12 A3023 RMK A01 T02000117  RH  059%=      5-min Rain = 0
KSW1 111411Z 17002KT 20/12 A3023 RMK A01 T02010116  RH  058%=      5-min Rain = 0
KSW1 111412Z 17003KT 20/12 A3022 RMK A01 T02020116  RH  058%=      5-min Rain = 0
KSW1 111413Z 16002KT 20/12 A3022 RMK A01 T02020116  RH  058%=      5-min Rain = 0
KSW1 111414Z 17004KT 20/12 A3022 RMK A01 T02020116  RH  058%=      5-min Rain = 0
KSW1 111415Z 18002KT 20/12 A3022 RMK A01 T02020115  RH  057%=      5-min Rain = 0
KSW1 111416Z 18002KT 20/12 A3022 RMK A01 T02020116  RH  057%=      5-min Rain = 0
KSW1 111417Z 19003KT 20/12 A3023 RMK A01 T02030117  RH  058%=      5-min Rain = 0
KSW1 111418Z 17002KT 20/12 A3023 RMK A01 T02030117  RH  058%=      5-min Rain = 0
KSW1 111419Z 18003KT 20/12 A3023 RMK A01 T02040117  RH  058%=      5-min Rain = 0
KSW1 111420Z 20003KT 20/12 A3023 RMK A01 T02040118  RH  058%=      5-min Rain = 0
KSW1 111421Z 19003KT 21/12 A3023 RMK A01 T02050118  RH  057%=      5-min Rain = 0
KSW1 111422Z 18003KT 21/12 A3023 RMK A01 T02060119  RH  057%=      5-min Rain = 0
KSW1 111423Z 18003KT 21/12 A3023 RMK A01 T02070118  RH  057%=      5-min Rain = 0
KSW1 111424Z 20004KT 21/12 A3023 RMK A01 T02070117  RH  056%=      5-min Rain = 0
KSW1 111425Z 21003KT 21/12 A3023 RMK A01 T02080117  RH  056%=      5-min Rain = 0
KSW1 111426Z 21003KT 21/12 A3023 RMK A01 T02080118  RH  056%=      5-min Rain = 0
KSW1 111427Z 19004KT 21/12 A3023 RMK A01 T02080118  RH  056%=      5-min Rain = 0
KSW1 111428Z 18004KT 21/12 A3023 RMK A01 T02090116  RH  055%=      5-min Rain = 0
KSW1 111429Z 18005KT 21/12 A3023 RMK A01 T02100116  RH  055%=      5-min Rain = 0
KSW1 111430Z 20005KT 21/12 A3023 RMK A01 T02110117  RH  055%=      5-min Rain = 0
KSW1 111431Z 19005KT 21/11 A3023 RMK A01 T02120114  RH  053%=      5-min Rain = 0
KSW1 111432Z 20004KT 21/11 A3023 RMK A01 T02130113  RH  053%=      5-min Rain = 0
KSW1 111433Z 20004KT 21/11 A3023 RMK A01 T02130113  RH  053%=      5-min Rain = 0
KSW1 111434Z 19004KT 21/11 A3023 RMK A01 T02130114  RH  053%=      5-min Rain = 0
KSW1 111435Z 20004KT 21/12 A3023 RMK A01 T02140116  RH  054%=      5-min Rain = 0
KSW1 111436Z 19005KT 22/11 A3023 RMK A01 T02150114  RH  052%=      5-min Rain = 0
KSW1 111437Z 19004KT 22/12 A3023 RMK A01 T02150115  RH  053%=      5-min Rain = 0
KSW1 111438Z 20004KT 22/12 A3023 RMK A01 T02150116  RH  053%=      5-min Rain = 0
KSW1 111439Z 19005KT 22/12 A3023 RMK A01 T02170116  RH  053%=      5-min Rain = 0
KSW1 111440Z 19003KT 22/11 A3023 RMK A01 T02180113  RH  051%=      5-min Rain = 0
KSW1 111441Z 18004KT 22/12 A3023 RMK A01 T02180116  RH  052%=      5-min Rain = 0
KSW1 111442Z 19004KT 22/11 A3023 RMK A01 T02180114  RH  051%=      5-min Rain = 0
KSW1 111443Z 17004KT 22/12 A3023 RMK A01 T02190115  RH  052%=      5-min Rain = 0
KSW1 111444Z 18004KT 22/12 A3023 RMK A01 T02200115  RH  051%=      5-min Rain = 0
KSW1 111445Z 17003KT 22/11 A3023 RMK A01 T02200114  RH  051%=      5-min Rain = 0
KSW1 111446Z 20004KT 22/11 A3023 RMK A01 T02210113  RH  050%=      5-min Rain = 0
KSW1 111447Z 17005KT 22/11 A3023 RMK A01 T02200114  RH  051%=      5-min Rain = 0
KSW1 111448Z 17004KT 22/12 A3023 RMK A01 T02210115  RH  051%=      5-min Rain = 0
KSW1 111449Z 17004KT 22/12 A3023 RMK A01 T02220116  RH  051%=      5-min Rain = 0
KSW1 111450Z 18005KT 22/11 A3023 RMK A01 T02240113  RH  050%=      5-min Rain = 0
KSW1 111451Z 16004KT 22/11 A3023 RMK A01 T02230110  RH  049%=      5-min Rain = 0
KSW1 111452Z 16004KT 22/11 A3023 RMK A01 T02220111  RH  049%=      5-min Rain = 0
KSW1 111453Z 19004KT 22/11 A3023 RMK A01 T02230114  RH  050%=      5-min Rain = 0
KSW1 111454Z 22004KT 22/11 A3023 RMK A01 T02230110  RH  049%=      5-min Rain = 0
KSW1 111455Z 21005KT 22/11 A3023 RMK A01 T02220111  RH  049%=      5-min Rain = 0
KSW1 111456Z 18004KT 22/11 A3023 RMK A01 T02230113  RH  050%=      5-min Rain = 0
KSW1 111457Z 18004KT 22/11 A3023 RMK A01 T02240113  RH  049%=      5-min Rain = 0
KSW1 111458Z 17004KT 23/11 A3023 RMK A01 T02250112  RH  049%=      5-min Rain = 0
KSW1 111459Z 17005KT 23/11 A3023 RMK A01 T02250111  RH  049%=      5-min Rain = 0
KSW1 111500Z 15004KT 23/11 A3023 RMK A01 T02250112  RH  049%=      5-min Rain = 0
KSW1 111501Z 15003KT 23/11 A3023 RMK A01 T02250111  RH  048%=      5-min Rain = 0
KSW1 111502Z 18003KT 23/11 A3023 RMK A01 T02250113  RH  049%=      5-min Rain = 0
KSW1 111503Z 20005KT 23/11 A3023 RMK A01 T02260111  RH  048%=      5-min Rain = 0
KSW1 111504Z 20003KT 23/11 A3023 RMK A01 T02270112  RH  048%=      5-min Rain = 0
KSW1 111505Z 19003KT 23/11 A3023 RMK A01 T02270111  RH  048%=      5-min Rain = 0
KSW1 111506Z 21004KT 23/11 A3023 RMK A01 T02270111  RH  048%=      5-min Rain = 0
KSW1 111507Z 21005KT 23/11 A3023 RMK A01 T02260109  RH  047%=      5-min Rain = 0
KSW1 111508Z 22003KT 22/11 A3023 RMK A01 T02240108  RH  048%=      5-min Rain = 0
KSW1 111509Z 23002KT 22/11 A3023 RMK A01 T02240109  RH  048%=      5-min Rain = 0
KSW1 111510Z 20004KT 22/11 A3023 RMK A01 T02240111  RH  049%=      5-min Rain = 0
KSW1 111511Z 23004KT 23/11 A3023 RMK A01 T02260108  RH  047%=      5-min Rain = 0
KSW1 111512Z 22004KT 23/11 A3023 RMK A01 T02260108  RH  047%=      5-min Rain = 0
KSW1 111513Z 22005KT 23/11 A3023 RMK A01 T02270105  RH  046%=      5-min Rain = 0
KSW1 111514Z 23003KT 23/10 A3023 RMK A01 T02260103  RH  046%=      5-min Rain = 0
KSW1 111515Z 24002KT 23/10 A3023 RMK A01 T02260104  RH  046%=      5-min Rain = 0
KSW1 111516Z 26002KT 23/10 A3023 RMK A01 T02260104  RH  046%=      5-min Rain = 0
KSW1 111517Z 18003KT 23/11 A3023 RMK A01 T02270108  RH  047%=      5-min Rain = 0
KSW1 111518Z 17002KT 23/11 A3023 RMK A01 T02280108  RH  047%=      5-min Rain = 0
KSW1 111519Z 19003KT 23/11 A3023 RMK A01 T02270108  RH  047%=      5-min Rain = 0
KSW1 111520Z 20003KT 23/11 A3023 RMK A01 T02280109  RH  047%=      5-min Rain = 0
KSW1 111521Z 23003KT 23/11 A3023 RMK A01 T02290108  RH  047%=      5-min Rain = 0
KSW1 111522Z 22004KT 23/11 A3023 RMK A01 T02290108  RH  046%=      5-min Rain = 0
KSW1 111523Z 27001KT 23/11 A3023 RMK A01 T02290108  RH  046%=      5-min Rain = 0
KSW1 111524Z 32002KT 23/11 A3023 RMK A01 T02290108  RH  046%=      5-min Rain = 0
KSW1 111525Z 32002KT 23/11 A3023 RMK A01 T02290109  RH  047%=      5-min Rain = 0
KSW1 111526Z 27001KT 23/11 A3023 RMK A01 T02290111  RH  047%=      5-min Rain = 0
KSW1 111527Z 22002KT 23/11 A3023 RMK A01 T02310109  RH  046%=      5-min Rain = 0
KSW1 111528Z 22002KT 23/11 A3023 RMK A01 T02310110  RH  046%=      5-min Rain = 0
KSW1 111529Z 20003KT 23/11 A3023 RMK A01 T02320109  RH  046%=      5-min Rain = 0
KSW1 111530Z 19001KT 23/11 A3023 RMK A01 T02320108  RH  046%=      5-min Rain = 0
KSW1 111531Z 19001KT 23/11 A3023 RMK A01 T02320108  RH  046%=      5-min Rain = 0
KSW1 111532Z 22002KT 23/11 A3023 RMK A01 T02320108  RH  045%=      5-min Rain = 0
KSW1 111533Z 20003KT 23/11 A3023 RMK A01 T02340112  RH  046%=      5-min Rain = 0
KSW1 111534Z 16003KT 24/11 A3023 RMK A01 T02350111  RH  046%=      5-min Rain = 0
KSW1 111535Z 18002KT 24/12 A3023 RMK A01 T02370115  RH  046%=      5-min Rain = 0
KSW1 111536Z 22002KT 24/11 A3023 RMK A01 T02380112  RH  045%=      5-min Rain = 0
KSW1 111537Z 19001KT 24/11 A3023 RMK A01 T02390113  RH  045%=      5-min Rain = 0
KSW1 111538Z 17003KT 24/11 A3023 RMK A01 T02400111  RH  044%=      5-min Rain = 0
KSW1 111539Z 18004KT 24/11 A3023 RMK A01 T02400112  RH  045%=      5-min Rain = 0
KSW1 111540Z 20004KT 24/11 A3023 RMK A01 T02400112  RH  044%=      5-min Rain = 0
KSW1 111541Z 17002KT 24/11 A3023 RMK A01 T02380108  RH  044%=      5-min Rain = 0
KSW1 111542Z 16002KT 24/11 A3023 RMK A01 T02370110  RH  045%=      5-min Rain = 0
KSW1 111543Z 17002KT 24/11 A3023 RMK A01 T02380111  RH  045%=      5-min Rain = 0
KSW1 111544Z 23003KT 24/11 A3023 RMK A01 T02390109  RH  044%=      5-min Rain = 0
KSW1 111545Z 25001KT 24/11 A3023 RMK A01 T02390109  RH  044%=      5-min Rain = 0
KSW1 111546Z 30002KT 24/11 A3023 RMK A01 T02380109  RH  044%=      5-min Rain = 0
KSW1 111547Z 29002KT 24/11 A3023 RMK A01 T02380111  RH  045%=      5-min Rain = 0
KSW1 111548Z 29002KT 24/11 A3023 RMK A01 T02380111  RH  045%=      5-min Rain = 0
KSW1 111549Z 29003KT 24/11 A3023 RMK A01 T02380112  RH  045%=      5-min Rain = 0
KSW1 111550Z 28002KT 24/11 A3023 RMK A01 T02390110  RH  044%=      5-min Rain = 0
KSW1 111551Z 29003KT 24/11 A3023 RMK A01 T02390110  RH  044%=      5-min Rain = 0
KSW1 111552Z 31002KT 24/11 A3023 RMK A01 T02390108  RH  044%=      5-min Rain = 0
KSW1 111553Z 32002KT 24/11 A3023 RMK A01 T02390108  RH  044%=      5-min Rain = 0
KSW1 111554Z 33002KT 24/11 A3023 RMK A01 T02380111  RH  045%=      5-min Rain = 0
KSW1 111555Z 33002KT 24/11 A3023 RMK A01 T02390108  RH  044%=      5-min Rain = 0
KSW1 111556Z 35001KT 24/11 A3023 RMK A01 T02400109  RH  044%=      5-min Rain = 0
KSW1 111557Z 32002KT 24/11 A3023 RMK A01 T02400109  RH  044%=      5-min Rain = 0
KSW1 111558Z 30002KT 24/11 A3023 RMK A01 T02420111  RH  044%=      5-min Rain = 0
KSW1 111559Z 31003KT 24/11 A3023 RMK A01 T02430110  RH  043%=      5-min Rain = 0
KSW1 111600Z 31001KT 24/11 A3023 RMK A01 T02420108  RH  043%=      5-min Rain = 0
KSW1 111601Z 30000KT 24/11 A3023 RMK A01 T02420111  RH  044%=      5-min Rain = 0
KSW1 111602Z 00000KT 24/11 A3023 RMK A01 T02420113  RH  044%=      5-min Rain = 0
KSW1 111603Z 12001KT 25/11 A3023 RMK A01 T02450112  RH  043%=      5-min Rain = 0
KSW1 111604Z 01001KT 25/11 A3023 RMK A01 T02470111  RH  043%=      5-min Rain = 0
KSW1 111605Z 25002KT 25/11 A3023 RMK A01 T02480113  RH  043%=      5-min Rain = 0
KSW1 111606Z 17001KT 25/11 A3023 RMK A01 T02490111  RH  042%=      5-min Rain = 0
KSW1 111607Z 30000KT 25/11 A3023 RMK A01 T02490111  RH  042%=      5-min Rain = 0
KSW1 111608Z 30003KT 25/11 A3023 RMK A01 T02500113  RH  042%=      5-min Rain = 0
KSW1 111609Z 31004KT 25/11 A3023 RMK A01 T02500113  RH  042%=      5-min Rain = 0
KSW1 111610Z 29004KT 25/11 A3023 RMK A01 T02500113  RH  042%=      5-min Rain = 0
KSW1 111611Z 30003KT 25/11 A3023 RMK A01 T02490113  RH  043%=      5-min Rain = 0
KSW1 111612Z 30003KT 25/11 A3023 RMK A01 T02480112  RH  043%=      5-min Rain = 0
KSW1 111613Z 30002KT 25/11 A3023 RMK A01 T02470112  RH  043%=      5-min Rain = 0
KSW1 111614Z 32003KT 25/11 A3023 RMK A01 T02450110  RH  043%=      5-min Rain = 0
KSW1 111615Z 36002KT 24/11 A3023 RMK A01 T02440111  RH  043%=      5-min Rain = 0
KSW1 111616Z 28001KT 24/11 A3023 RMK A01 T02440111  RH  043%=      5-min Rain = 0
KSW1 111617Z 26002KT 24/11 A3023 RMK A01 T02440110  RH  043%=      5-min Rain = 0
KSW1 111618Z 25000KT 24/11 A3023 RMK A01 T02430110  RH  043%=      5-min Rain = 0
KSW1 111619Z 33003KT 24/11 A3023 RMK A01 T02430112  RH  044%=      5-min Rain = 0
KSW1 111620Z 01002KT 24/11 A3023 RMK A01 T02440111  RH  043%=      5-min Rain = 0
KSW1 111621Z 36001KT 24/11 A3023 RMK A01 T02440111  RH  043%=      5-min Rain = 0
KSW1 111622Z 01001KT 24/11 A3023 RMK A01 T02440112  RH  043%=      5-min Rain = 0
KSW1 111623Z 34000KT 25/11 A3023 RMK A01 T02450112  RH  043%=      5-min Rain = 0
KSW1 111624Z 35003KT 25/11 A3023 RMK A01 T02470113  RH  043%=      5-min Rain = 0
KSW1 111625Z 35005KT 25/12 A3023 RMK A01 T02500115  RH  043%=      5-min Rain = 0
KSW1 111626Z 34005KT 25/11 A3023 RMK A01 T02520112  RH  041%=      5-min Rain = 0
KSW1 111627Z 31004KT 25/11 A3023 RMK A01 T02520113  RH  042%=      5-min Rain = 0
KSW1 111628Z 32004KT 25/11 A3023 RMK A01 T02540111  RH  041%=      5-min Rain = 0
KSW1 111629Z 35006KT 25/11 A3023 RMK A01 T02540111  RH  041%=      5-min Rain = 0
KSW1 111630Z 35005KT 25/11 A3023 RMK A01 T02530111  RH  041%=      5-min Rain = 0
KSW1 111631Z 34006KT 25/11 A3023 RMK A01 T02520110  RH  041%=      5-min Rain = 0
KSW1 111632Z 34006KT 25/11 A3023 RMK A01 T02520111  RH  041%=      5-min Rain = 0
KSW1 111633Z 35006KT 25/11 A3023 RMK A01 T02520110  RH  041%=      5-min Rain = 0
KSW1 111634Z 01005KT 25/11 A3022 RMK A01 T02500112  RH  042%=      5-min Rain = 0
KSW1 111635Z 34007KT 25/11 A3022 RMK A01 T02510113  RH  042%=      5-min Rain = 0
KSW1 111636Z 34004KT 25/11 A3022 RMK A01 T02510110  RH  041%=      5-min Rain = 0
KSW1 111637Z 32004KT 25/11 A3022 RMK A01 T02490110  RH  042%=      5-min Rain = 0
KSW1 111638Z 35007KT 25/11 A3022 RMK A01 T02480109  RH  042%=      5-min Rain = 0
KSW1 111639Z 33005KT 25/11 A3022 RMK A01 T02490111  RH  042%=      5-min Rain = 0
KSW1 111640Z 33004KT 25/11 A3022 RMK A01 T02510110  RH  041%=      5-min Rain = 0
KSW1 111641Z 35003KT 25/11 A3022 RMK A01 T02500110  RH  041%=      5-min Rain = 0
KSW1 111642Z 36002KT 25/11 A3022 RMK A01 T02490111  RH  042%=      5-min Rain = 0
KSW1 111643Z 02003KT 25/11 A3022 RMK A01 T02500111  RH  042%=      5-min Rain = 0
KSW1 111644Z 01004KT 25/11 A3022 RMK A01 T02510113  RH  042%=      5-min Rain = 0
KSW1 111645Z 34002KT 25/11 A3022 RMK A01 T02520110  RH  041%=      5-min Rain = 0
KSW1 111646Z 35002G7KT 25/11 A3022 RMK A01 T02510110  RH  041%=      5-min Rain = 0
KSW1 111647Z 01006KT 25/11 A3022 RMK A01 T02510112  RH  042%=      5-min Rain = 0
KSW1 111648Z 36004KT 25/11 A3022 RMK A01 T02520113  RH  042%=      5-min Rain = 0
KSW1 111649Z 32000KT 25/11 A3022 RMK A01 T02530110  RH  041%=      5-min Rain = 0
KSW1 111650Z 34005KT 25/11 A3022 RMK A01 T02530113  RH  042%=      5-min Rain = 0
KSW1 111651Z 35005KT 25/12 A3022 RMK A01 T02540115  RH  042%=      5-min Rain = 0
KSW1 111652Z 35005KT 26/12 A3022 RMK A01 T02560115  RH  041%=      5-min Rain = 0
KSW1 111653Z 33007KT 26/11 A3022 RMK A01 T02570112  RH  040%=      5-min Rain = 0
KSW1 111654Z 03005KT 26/11 A3022 RMK A01 T02550113  RH  041%=      5-min Rain = 0
KSW1 111655Z 06004KT 25/11 A3022 RMK A01 T02530113  RH  041%=      5-min Rain = 0
KSW1 111656Z 05003KT 25/11 A3022 RMK A01 T02520114  RH  042%=      5-min Rain = 0
KSW1 111657Z 34005KT 25/12 A3022 RMK A01 T02540115  RH  042%=      5-min Rain = 0
KSW1 111658Z 01007KT 26/12 A3022 RMK A01 T02560116  RH  042%=      5-min Rain = 0
KSW1 111659Z 01006KT 26/11 A3022 RMK A01 T02570114  RH  041%=      5-min Rain = 0
KSW1 111700Z 34005KT 26/12 A3022 RMK A01 T02570118  RH  042%=      5-min Rain = 0
KSW1 111701Z 33005KT 26/11 A3022 RMK A01 T02600114  RH  040%=      5-min Rain = 0
KSW1 111702Z 33003KT 26/11 A3022 RMK A01 T02580111  RH  040%=      5-min Rain = 0
KSW1 111703Z 32003KT 25/11 A3022 RMK A01 T02540111  RH  041%=      5-min Rain = 0
KSW1 111704Z 32004KT 25/11 A3022 RMK A01 T02520111  RH  041%=      5-min Rain = 0
KSW1 111705Z 32003KT 25/11 A3022 RMK A01 T02510113  RH  042%=      5-min Rain = 0
KSW1 111706Z 29005KT 25/11 A3022 RMK A01 T02530114  RH  042%=      5-min Rain = 0
KSW1 111707Z 26002KT 25/11 A3021 RMK A01 T02540110  RH  041%=      5-min Rain = 0
KSW1 111708Z 30003KT 25/11 A3021 RMK A01 T02510110  RH  041%=      5-min Rain = 0
KSW1 111709Z 32002KT 25/11 A3021 RMK A01 T02510112  RH  042%=      5-min Rain = 0
KSW1 111710Z 30002KT 25/11 A3021 RMK A01 T02510111  RH  041%=      5-min Rain = 0
KSW1 111711Z 30002KT 25/11 A3021 RMK A01 T02510112  RH  042%=      5-min Rain = 0
KSW1 111712Z 31003KT 25/12 A3021 RMK A01 T02530115  RH  042%=      5-min Rain = 0
KSW1 111713Z 35006KT 26/12 A3021 RMK A01 T02550119  RH  043%=      5-min Rain = 0
KSW1 111714Z 34006KT 26/12 A3021 RMK A01 T02580116  RH  041%=      5-min Rain = 0
KSW1 111715Z 35005KT 26/12 A3021 RMK A01 T02580117  RH  041%=      5-min Rain = 0
KSW1 111716Z 33006KT 26/12 A3021 RMK A01 T02580116  RH  041%=      5-min Rain = 0
KSW1 111717Z 35006KT 26/12 A3021 RMK A01 T02570117  RH  041%=      5-min Rain = 0
KSW1 111718Z 00004KT 26/12 A3021 RMK A01 T02570117  RH  041%=      5-min Rain = 0
KSW1 111719Z 33004KT 26/12 A3021 RMK A01 T02580116  RH  041%=      5-min Rain = 0
KSW1 111720Z 31005KT 26/12 A3021 RMK A01 T02580116  RH  041%=      5-min Rain = 0
KSW1 111721Z 32006KT 26/12 A3021 RMK A01 T02580115  RH  041%=      5-min Rain = 0
KSW1 111722Z 33007KT 26/12 A3021 RMK A01 T02560116  RH  041%=      5-min Rain = 0
KSW1 111723Z 34004KT 26/12 A3021 RMK A01 T02560117  RH  042%=      5-min Rain = 0
KSW1 111724Z 02005KT 26/12 A3021 RMK A01 T02590120  RH  042%=      5-min Rain = 0
KSW1 111725Z 02004KT 26/12 A3021 RMK A01 T02630117  RH  040%=      5-min Rain = 0
KSW1 111726Z 36004G10KT 26/12 A3021 RMK A01 T02610115  RH  040%=      5-min Rain = 0
KSW1 111727Z 32006KT 26/12 A3021 RMK A01 T02590116  RH  041%=      5-min Rain = 0
KSW1 111728Z 29003KT 26/12 A3021 RMK A01 T02580115  RH  041%=      5-min Rain = 0
KSW1 111729Z 26004KT 26/12 A3021 RMK A01 T02570115  RH  041%=      5-min Rain = 0
KSW1 111730Z 30002KT 26/12 A3021 RMK A01 T02570118  RH  042%=      5-min Rain = 0
KSW1 111731Z 30005KT 26/12 A3021 RMK A01 T02580116  RH  041%=      5-min Rain = 0
KSW1 111732Z 01003KT 26/12 A3021 RMK A01 T02580117  RH  041%=      5-min Rain = 0
KSW1 111733Z 34005KT 26/12 A3021 RMK A01 T02600120  RH  042%=      5-min Rain = 0
KSW1 111734Z 01005KT 26/12 A3021 RMK A01 T02640122  RH  041%=      5-min Rain = 0
KSW1 111735Z 03005KT 27/12 A3021 RMK A01 T02670118  RH  039%=      5-min Rain = 0
KSW1 111736Z 04004KT 26/12 A3021 RMK A01 T02630116  RH  040%=      5-min Rain = 0
KSW1 111737Z 03006KT 26/12 A3021 RMK A01 T02620117  RH  040%=      5-min Rain = 0
KSW1 111738Z 36007KT 26/12 A3021 RMK A01 T02620118  RH  041%=      5-min Rain = 0
KSW1 111739Z 02003KT 26/12 A3021 RMK A01 T02630116  RH  040%=      5-min Rain = 0
KSW1 111740Z 12001KT 26/12 A3021 RMK A01 T02630115  RH  040%=      5-min Rain = 0
KSW1 111741Z 02006KT 26/12 A3021 RMK A01 T02630117  RH  040%=      5-min Rain = 0
KSW1 111742Z 02007KT 26/12 A3021 RMK A01 T02640118  RH  040%=      5-min Rain = 0
KSW1 111743Z 04006KT 27/12 A3021 RMK A01 T02660117  RH  039%=      5-min Rain = 0
KSW1 111744Z 05003KT 26/12 A3021 RMK A01 T02640117  RH  040%=      5-min Rain = 0
KSW1 111745Z 01002KT 26/12 A3021 RMK A01 T02630116  RH  040%=      5-min Rain = 0
KSW1 111746Z 03004KT 26/12 A3021 RMK A01 T02630117  RH  040%=      5-min Rain = 0
KSW1 111747Z 36006KT 26/12 A3021 RMK A01 T02630119  RH  041%=      5-min Rain = 0
KSW1 111748Z 34010KT 27/12 A302 RMK A01 T02650119  RH  040%=      5-min Rain = 0
KSW1 111749Z 34008KT 27/12 A3021 RMK A01 T02670118  RH  039%=      5-min Rain = 0
KSW1 111750Z 34008KT 27/12 A3021 RMK A01 T02670119  RH  040%=      5-min Rain = 0
KSW1 111751Z 32007KT 26/12 A3021 RMK A01 T02640115  RH  039%=      5-min Rain = 0
KSW1 111752Z 26003KT 26/11 A302 RMK A01 T02590113  RH  040%=      5-min Rain = 0
KSW1 111753Z 26002KT 26/11 A302 RMK A01 T02570114  RH  041%=      5-min Rain = 0
KSW1 111754Z 33006KT 26/12 A302 RMK A01 T02570117  RH  041%=      5-min Rain = 0
KSW1 111755Z 33004KT 26/11 A302 RMK A01 T02590114  RH  040%=      5-min Rain = 0
KSW1 111756Z 30002KT 26/12 A302 RMK A01 T02580115  RH  041%=      5-min Rain = 0
KSW1 111757Z 34006KT 26/12 A302 RMK A01 T02580118  RH  042%=      5-min Rain = 0
KSW1 111758Z 34006KT 26/12 A302 RMK A01 T02610116  RH  041%=      5-min Rain = 0
KSW1 111759Z 33008KT 26/12 A302 RMK A01 T02620116  RH  040%=      5-min Rain = 0
KSW1 111800Z 34008KT 26/12 A302 RMK A01 T02630119  RH  041%=      5-min Rain = 0
KSW1 111801Z 35009KT 27/12 A302 RMK A01 T02670120  RH  040%=      5-min Rain = 0
KSW1 111802Z 35008KT 27/12 A302 RMK A01 T02670119  RH  040%=      5-min Rain = 0
KSW1 111803Z 36007KT 27/12 A302 RMK A01 T02670120  RH  040%=      5-min Rain = 0
KSW1 111804Z 36006KT 27/12 A302 RMK A01 T02670119  RH  040%=      5-min Rain = 0
KSW1 111805Z 01006KT 27/12 A302 RMK A01 T02660121  RH  041%=      5-min Rain = 0
KSW1 111806Z 36004KT 27/12 A302 RMK A01 T02680123  RH  041%=      5-min Rain = 0
KSW1 111807Z 03005KT 27/12 A302 RMK A01 T02710123  RH  040%=      5-min Rain = 0
KSW1 111808Z 02005KT 27/12 A302 RMK A01 T02730121  RH  039%=      5-min Rain = 0
KSW1 111809Z 35004KT 27/12 A302 RMK A01 T02720120  RH  039%=      5-min Rain = 0
KSW1 111810Z 06006KT 27/12 A302 RMK A01 T02710122  RH  040%=      5-min Rain = 0
KSW1 111811Z 09003KT 27/12 A302 RMK A01 T02710117  RH  038%=      5-min Rain = 0
KSW1 111812Z 06000KT 27/12 A302 RMK A01 T02690115  RH  038%=      5-min Rain = 0
KSW1 111813Z 35004KT 27/12 A302 RMK A01 T02680118  RH  039%=      5-min Rain = 0
KSW1 111814Z 34005KT 27/12 A302 RMK A01 T02680119  RH  040%=      5-min Rain = 0
KSW1 111815Z 35006KT 27/12 A302 RMK A01 T02700121  RH  040%=      5-min Rain = 0
KSW1 111816Z 02003KT 27/12 A302 RMK A01 T02710117  RH  038%=      5-min Rain = 0
KSW1 111817Z 00004KT 27/12 A302 RMK A01 T02690120  RH  039%=      5-min Rain = 0
KSW1 111818Z 01005KT 27/12 A302 RMK A01 T02700119  RH  039%=      5-min Rain = 0
KSW1 111819Z 34007KT 27/12 A302 RMK A01 T02710120  RH  039%=      5-min Rain = 0
KSW1 111820Z 36004KT 27/12 A302 RMK A01 T02700116  RH  038%=      5-min Rain = 0
KSW1 111821Z 00003KT 27/12 A302 RMK A01 T02680119  RH  040%=      5-min Rain = 0
KSW1 111822Z 35005G12KT 27/12 A302 RMK A01 T02680120  RH  040%=      5-min Rain = 0
KSW1 111823Z 35009KT 27/12 A302 RMK A01 T02710119  RH  039%=      5-min Rain = 0
KSW1 111824Z 35007KT 27/12 A302 RMK A01 T02720120  RH  039%=      5-min Rain = 0
KSW1 111825Z 34006KT 27/12 A302 RMK A01 T02730121  RH  039%=      5-min Rain = 0
KSW1 111826Z 34008KT 27/12 A3019 RMK A01 T02730119  RH  038%=      5-min Rain = 0
KSW1 111827Z 01004KT 27/12 A3019 RMK A01 T02700119  RH  039%=      5-min Rain = 0
KSW1 111828Z 33004KT 27/12 A3019 RMK A01 T02700122  RH  040%=      5-min Rain = 0
KSW1 111829Z 33005G11KT 27/12 A3019 RMK A01 T02720118  RH  038%=      5-min Rain = 0
KSW1 111830Z 34008KT 27/12 A3019 RMK A01 T02710117  RH  038%=      5-min Rain = 0
KSW1 111831Z 32005KT 27/12 A3019 RMK A01 T02700118  RH  039%=      5-min Rain = 0
KSW1 111832Z 34006KT 27/12 A3019 RMK A01 T02710117  RH  038%=      5-min Rain = 0
KSW1 111833Z 00008KT 27/12 A3019 RMK A01 T02720119  RH  038%=      5-min Rain = 0
KSW1 111834Z 35007KT 27/12 A3019 RMK A01 T02730118  RH  038%=      5-min Rain = 0
KSW1 111835Z 31006KT 27/12 A3019 RMK A01 T02730118  RH  038%=      5-min Rain = 0
KSW1 111836Z 30007KT 27/12 A3019 RMK A01 T02720118  RH  038%=      5-min Rain = 0
KSW1 111837Z 35006KT 27/12 A3019 RMK A01 T02730120  RH  039%=      5-min Rain = 0
KSW1 111838Z 35007KT 28/12 A3019 RMK A01 T02780123  RH  038%=      5-min Rain = 0
KSW1 111839Z 35005KT 28/12 A3019 RMK A01 T02800118  RH  037%=      5-min Rain = 0
KSW1 111840Z 32004KT 28/12 A3019 RMK A01 T02780121  RH  038%=      5-min Rain = 0
KSW1 111841Z 34006KT 28/12 A3019 RMK A01 T02790118  RH  037%=      5-min Rain = 0
KSW1 111842Z 30005KT 28/12 A3019 RMK A01 T02770119  RH  037%=      5-min Rain = 0
KSW1 111843Z 32004KT 28/12 A3019 RMK A01 T02770117  RH  037%=      5-min Rain = 0
KSW1 111844Z 32005KT 28/12 A3019 RMK A01 T02750117  RH  037%=      5-min Rain = 0
KSW1 111845Z 33002KT 27/12 A3019 RMK A01 T02720117  RH  038%=      5-min Rain = 0
KSW1 111846Z 33002KT 27/12 A3018 RMK A01 T02710118  RH  039%=      5-min Rain = 0
KSW1 111847Z 02005KT 27/12 A3018 RMK A01 T02730121  RH  039%=      5-min Rain = 0
KSW1 111848Z 03006KT 28/12 A3018 RMK A01 T02760120  RH  038%=      5-min Rain = 0
KSW1 111849Z 35006KT 28/12 A3018 RMK A01 T02790124  RH  038%=      5-min Rain = 0
KSW1 111850Z 36006KT 28/12 A3018 RMK A01 T02820121  RH  037%=      5-min Rain = 0
KSW1 111851Z 02007KT 28/12 A3018 RMK A01 T02800121  RH  037%=      5-min Rain = 0
KSW1 111852Z 00006KT 28/12 A3018 RMK A01 T02780120  RH  037%=      5-min Rain = 0
KSW1 111853Z 34004KT 28/12 A3018 RMK A01 T02770119  RH  037%=      5-min Rain = 0
KSW1 111854Z 33008KT 28/12 A3018 RMK A01 T02760120  RH  038%=      5-min Rain = 0
KSW1 111855Z 34009KT 28/12 A3018 RMK A01 T02760120  RH  038%=      5-min Rain = 0
KSW1 111856Z 36006KT 27/12 A3018 RMK A01 T02740120  RH  038%=      5-min Rain = 0
KSW1 111857Z 35006KT 28/12 A3018 RMK A01 T02750119  RH  038%=      5-min Rain = 0
KSW1 111858Z 35004KT 28/12 A3018 RMK A01 T02750120  RH  038%=      5-min Rain = 0
KSW1 111859Z 35005KT 28/12 A3018 RMK A01 T02770119  RH  038%=      5-min Rain = 0
KSW1 111900Z 35004KT 28/12 A3018 RMK A01 T02760118  RH  037%=      5-min Rain = 0
KSW1 111901Z 35004KT 27/12 A3018 RMK A01 T02740120  RH  038%=      5-min Rain = 0
KSW1 111902Z 32003KT 28/12 A3018 RMK A01 T02750121  RH  038%=      5-min Rain = 0
KSW1 111903Z 33007KT 28/12 A3017 RMK A01 T02780120  RH  038%=      5-min Rain = 0
KSW1 111904Z 34004KT 28/12 A3017 RMK A01 T02770119  RH  037%=      5-min Rain = 0
KSW1 111905Z 32006KT 28/12 A3017 RMK A01 T02770120  RH  038%=      5-min Rain = 0
KSW1 111906Z 32006KT 28/12 A3017 RMK A01 T02780117  RH  037%=      5-min Rain = 0
KSW1 111907Z 05005KT 28/12 A3017 RMK A01 T02790121  RH  038%=      5-min Rain = 0
KSW1 111908Z 03007KT 28/12 A3017 RMK A01 T02820120  RH  037%=      5-min Rain = 0
KSW1 111909Z 06007KT 28/12 A3017 RMK A01 T02820119  RH  036%=      5-min Rain = 0
KSW1 111910Z 05007KT 28/12 A3017 RMK A01 T02820118  RH  036%=      5-min Rain = 0
KSW1 111911Z 03004KT 28/12 A3017 RMK A01 T02840123  RH  037%=      5-min Rain = 0
KSW1 111912Z 08005KT 29/12 A3017 RMK A01 T02880120  RH  035%=      5-min Rain = 0
KSW1 111913Z 04005KT 29/12 A3017 RMK A01 T02870116  RH  035%=      5-min Rain = 0
KSW1 111914Z 04005KT 28/12 A3017 RMK A01 T02840116  RH  035%=      5-min Rain = 0
KSW1 111915Z 03002KT 28/12 A3017 RMK A01 T02810117  RH  036%=      5-min Rain = 0
KSW1 111916Z 05003KT 28/12 A3017 RMK A01 T02810115  RH  036%=      5-min Rain = 0
KSW1 111917Z 05004KT 28/12 A3017 RMK A01 T02790116  RH  036%=      5-min Rain = 0
KSW1 111918Z 04004KT 28/12 A3017 RMK A01 T02790117  RH  037%=      5-min Rain = 0
KSW1 111919Z 05005KT 28/12 A3017 RMK A01 T02790116  RH  036%=      5-min Rain = 0
KSW1 111920Z 06009KT 28/12 A3017 RMK A01 T02790118  RH  037%=      5-min Rain = 0
KSW1 111921Z 04005KT 28/12 A3017 RMK A01 T02820117  RH  036%=      5-min Rain = 0
KSW1 111922Z 02005KT 29/12 A3017 RMK A01 T02860123  RH  037%=      5-min Rain = 0
KSW1 111923Z 02008KT 29/12 A3017 RMK A01 T02920120  RH  035%=      5-min Rain = 0
KSW1 111924Z 01008KT 29/12 A3017 RMK A01 T02920117  RH  034%=      5-min Rain = 0
KSW1 111925Z 01009KT 29/12 A3016 RMK A01 T02890117  RH  034%=      5-min Rain = 0
KSW1 111926Z 35007KT 29/12 A3016 RMK A01 T02870118  RH  035%=      5-min Rain = 0
KSW1 111927Z 35009KT 29/12 A3016 RMK A01 T02860118  RH  035%=      5-min Rain = 0
KSW1 111928Z 00010KT 29/12 A3016 RMK A01 T02870120  RH  036%=      5-min Rain = 0
KSW1 111929Z 35007KT 29/12 A3016 RMK A01 T02880119  RH  035%=      5-min Rain = 0
KSW1 111930Z 34006KT 29/12 A3016 RMK A01 T02900118  RH  035%=      5-min Rain = 0
KSW1 111931Z 33006KT 29/12 A3016 RMK A01 T02880117  RH  035%=      5-min Rain = 0
KSW1 111932Z 31005KT 28/12 A3016 RMK A01 T02840117  RH  035%=      5-min Rain = 0
KSW1 111933Z 31005KT 28/11 A3016 RMK A01 T02820114  RH  035%=      5-min Rain = 0
KSW1 111934Z 28003KT 28/11 A3016 RMK A01 T02790114  RH  036%=      5-min Rain = 0
KSW1 111935Z 33004KT 28/11 A3016 RMK A01 T02780114  RH  036%=      5-min Rain = 0
KSW1 111936Z 33007KT 28/12 A3016 RMK A01 T02800120  RH  037%=      5-min Rain = 0
KSW1 111937Z 35009KT 28/12 A3016 RMK A01 T02840116  RH  035%=      5-min Rain = 0
KSW1 111938Z 02011KT 29/12 A3016 RMK A01 T02870119  RH  035%=      5-min Rain = 0
KSW1 111939Z 01011KT 29/12 A3016 RMK A01 T02890117  RH  034%=      5-min Rain = 0
KSW1 111940Z 02011KT 29/12 A3016 RMK A01 T02880118  RH  035%=      5-min Rain = 0
KSW1 111941Z 00007KT 29/12 A3016 RMK A01 T02880118  RH  035%=      5-min Rain = 0
KSW1 111942Z 35010G15KT 29/12 A3015 RMK A01 T02910121  RH  035%=      5-min Rain = 0
KSW1 111943Z 35009KT 29/12 A3015 RMK A01 T02920116  RH  034%=      5-min Rain = 0
KSW1 111944Z 35009KT 29/12 A3015 RMK A01 T02900115  RH  034%=      5-min Rain = 0
KSW1 111945Z 35008KT 29/12 A3015 RMK A01 T02870115  RH  035%=      5-min Rain = 0
KSW1 111946Z 35008KT 29/11 A3015 RMK A01 T02860114  RH  035%=      5-min Rain = 0
KSW1 111947Z 33007KT 29/12 A3015 RMK A01 T02850116  RH  035%=      5-min Rain = 0
KSW1 111948Z 35008KT 29/12 A3015 RMK A01 T02860117  RH  035%=      5-min Rain = 0
KSW1 111949Z 33007KT 29/12 A3015 RMK A01 T02880115  RH  034%=      5-min Rain = 0
KSW1 111950Z 35006G12KT 29/12 A3015 RMK A01 T02860116  RH  035%=      5-min Rain = 0
KSW1 111951Z 02008KT 29/12 A3015 RMK A01 T02870117  RH  035%=      5-min Rain = 0
KSW1 111952Z 03005KT 29/12 A3015 RMK A01 T02890116  RH  034%=      5-min Rain = 0
KSW1 111953Z 03005KT 29/12 A3015 RMK A01 T02890115  RH  034%=      5-min Rain = 0
KSW1 111954Z 35007KT 29/12 A3015 RMK A01 T02890116  RH  034%=      5-min Rain = 0
KSW1 111955Z 33009KT 29/12 A3015 RMK A01 T02880115  RH  034%=      5-min Rain = 0
KSW1 111956Z 33010KT 29/12 A3014 RMK A01 T02860115  RH  035%=      5-min Rain = 0
KSW1 111957Z 33006KT 29/11 A3014 RMK A01 T02850113  RH  034%=      5-min Rain = 0
KSW1 111958Z 32005KT 29/12 A3014 RMK A01 T02850115  RH  035%=      5-min Rain = 0
KSW1 111959Z 01006KT 29/12 A3014 RMK A01 T02850118  RH  035%=      5-min Rain = 0
KSW1 112000Z 02010KT 29/12 A3015 RMK A01 T02890117  RH  035%=      5-min Rain = 0
KSW1 112001Z 02010KT 29/12 A3015 RMK A01 T02910115  RH  034%=      5-min Rain = 0
KSW1 112002Z 04006KT 29/12 A3015 RMK A01 T02910115  RH  034%=      5-min Rain = 0
KSW1 112003Z 12001KT 29/11 A3014 RMK A01 T02890113  RH  034%=      5-min Rain = 0
KSW1 112004Z 03007G15KT 29/11 A3014 RMK A01 T02870113  RH  034%=      5-min Rain = 0
KSW1 112005Z 02011KT 29/11 A3014 RMK A01 T02870114  RH  034%=      5-min Rain = 0
KSW1 112006Z 03008KT 29/11 A3014 RMK A01 T02890113  RH  034%=      5-min Rain = 0
KSW1 112007Z 04010KT 29/11 A3014 RMK A01 T02890114  RH  034%=      5-min Rain = 0
KSW1 112008Z 05008KT 29/11 A3014 RMK A01 T02880113  RH  034%=      5-min Rain = 0
KSW1 112009Z 04006KT 29/11 A3014 RMK A01 T02860114  RH  034%=      5-min Rain = 0
KSW1 112010Z 02005KT 29/12 A3014 RMK A01 T02870117  RH  035%=      5-min Rain = 0
KSW1 112011Z 02007G12KT 29/12 A3014 RMK A01 T02900119  RH  035%=      5-min Rain = 0
KSW1 112012Z 00011KT 29/12 A3014 RMK A01 T02940115  RH  033%=      5-min Rain = 0
KSW1 112013Z 02005KT 29/12 A3014 RMK A01 T02940118  RH  034%=      5-min Rain = 0
KSW1 112014Z 05008KT 30/12 A3014 RMK A01 T02950119  RH  034%=      5-min Rain = 0
KSW1 112015Z 05007KT 30/11 A3014 RMK A01 T02960114  RH  032%=      5-min Rain = 0
KSW1 112016Z 04008KT 29/12 A3013 RMK A01 T02930115  RH  033%=      5-min Rain = 0
KSW1 112017Z 03012KT 29/12 A3014 RMK A01 T02920116  RH  034%=      5-min Rain = 0
KSW1 112018Z 03010KT 29/11 A3013 RMK A01 T02920114  RH  033%=      5-min Rain = 0
KSW1 112019Z 02010KT 29/12 A3013 RMK A01 T02920115  RH  033%=      5-min Rain = 0
KSW1 112020Z 01005KT 29/11 A3013 RMK A01 T02920114  RH  033%=      5-min Rain = 0
KSW1 112021Z 35011KT 29/12 A3013 RMK A01 T02910116  RH  034%=      5-min Rain = 0
KSW1 112022Z 34008KT 29/12 A3013 RMK A01 T02890115  RH  034%=      5-min Rain = 0
KSW1 112023Z 35006KT 29/11 A3013 RMK A01 T02890114  RH  034%=      5-min Rain = 0
KSW1 112024Z 33006KT 29/11 A3013 RMK A01 T02880113  RH  034%=      5-min Rain = 0
KSW1 112025Z 35004KT 29/11 A3013 RMK A01 T02870111  RH  034%=      5-min Rain = 0
KSW1 112026Z 35003KT 29/11 A3013 RMK A01 T02860112  RH  034%=      5-min Rain = 0
KSW1 112027Z 02004KT 29/11 A3013 RMK A01 T02860113  RH  034%=      5-min Rain = 0
KSW1 112028Z 02005KT 29/11 A3013 RMK A01 T02870114  RH  034%=      5-min Rain = 0
KSW1 112029Z 01007KT 29/12 A3013 RMK A01 T02890116  RH  034%=      5-min Rain = 0
KSW1 112030Z 01003KT 29/11 A3013 RMK A01 T02900113  RH  033%=      5-min Rain = 0
KSW1 112031Z 02003KT 29/11 A3013 RMK A01 T02890114  RH  034%=      5-min Rain = 0
KSW1 112032Z 00003KT 29/12 A3013 RMK A01 T02880115  RH  034%=      5-min Rain = 0
KSW1 112033Z 03003KT 29/11 A3013 RMK A01 T02880113  RH  034%=      5-min Rain = 0
KSW1 112034Z 03002KT 29/12 A3012 RMK A01 T02880115  RH  034%=      5-min Rain = 0
KSW1 112035Z 36002KT 29/11 A3012 RMK A01 T02880113  RH  034%=      5-min Rain = 0
KSW1 112036Z 35007KT 29/12 A3012 RMK A01 T02870116  RH  035%=      5-min Rain = 0
KSW1 112037Z 00009KT 29/12 A3012 RMK A01 T02890115  RH  034%=      5-min Rain = 0
KSW1 112038Z 34011KT 29/12 A3012 RMK A01 T02930118  RH  034%=      5-min Rain = 0
KSW1 112039Z 35012KT 30/11 A3012 RMK A01 T02970113  RH  032%=      5-min Rain = 0
KSW1 112040Z 35010KT 30/11 A3012 RMK A01 T02950110  RH  032%=      5-min Rain = 0
KSW1 112041Z 34009KT 29/11 A3012 RMK A01 T02910111  RH  033%=      5-min Rain = 0
KSW1 112042Z 33008KT 29/11 A3012 RMK A01 T02900110  RH  033%=      5-min Rain = 0
KSW1 112043Z 34011KT 29/11 A3012 RMK A01 T02920114  RH  033%=      5-min Rain = 0
KSW1 112044Z 33012KT 29/11 A3012 RMK A01 T02930112  RH  033%=      5-min Rain = 0
KSW1 112045Z 33011KT 29/11 A3012 RMK A01 T02930111  RH  032%=      5-min Rain = 0
KSW1 112046Z 32010KT 29/11 A3012 RMK A01 T02930112  RH  033%=      5-min Rain = 0
KSW1 112047Z 34008KT 29/11 A3012 RMK A01 T02920111  RH  033%=      5-min Rain = 0
KSW1 112048Z 35008KT 29/11 A3012 RMK A01 T02910111  RH  033%=      5-min Rain = 0
KSW1 112049Z 34009KT 29/11 A3012 RMK A01 T02920112  RH  033%=      5-min Rain = 0
KSW1 112050Z 36005KT 29/11 A3012 RMK A01 T02920114  RH  033%=      5-min Rain = 0
KSW1 112051Z 35008KT 29/12 A3012 RMK A01 T02930117  RH  034%=      5-min Rain = 0
KSW1 112052Z 34008KT 30/11 A3012 RMK A01 T02950113  RH  032%=      5-min Rain = 0
KSW1 112053Z 00008KT 29/11 A3012 RMK A01 T02940114  RH  033%=      5-min Rain = 0
KSW1 112054Z 02006KT 29/11 A3012 RMK A01 T02920114  RH  033%=      5-min Rain = 0
KSW1 112055Z 01008KT 29/11 A3012 RMK A01 T02920114  RH  033%=      5-min Rain = 0
KSW1 112056Z 01006KT 29/11 A3012 RMK A01 T02900112  RH  033%=      5-min Rain = 0
KSW1 112057Z 35005KT 29/12 A3012 RMK A01 T02900116  RH  034%=      5-min Rain = 0
KSW1 112058Z 34007KT 29/11 A3012 RMK A01 T02920112  RH  033%=      5-min Rain = 0
KSW1 112059Z 33004KT 29/11 A3012 RMK A01 T02900112  RH  033%=      5-min Rain = 0
KSW1 112100Z 32005KT 29/11 A3012 RMK A01 T02890112  RH  033%=      5-min Rain = 0
KSW1 112101Z 29005KT 29/11 A3012 RMK A01 T02880111  RH  033%=      5-min Rain = 0
KSW1 112102Z 30004KT 29/11 A3011 RMK A01 T02870112  RH  034%=      5-min Rain = 0
KSW1 112103Z 30003KT 29/11 A3011 RMK A01 T02870110  RH  033%=      5-min Rain = 0
KSW1 112104Z 03003KT 29/11 A3011 RMK A01 T02870113  RH  034%=      5-min Rain = 0
KSW1 112105Z 00009KT 29/12 A3011 RMK A01 T02900116  RH  034%=      5-min Rain = 0
KSW1 112106Z 35009KT 29/12 A3011 RMK A01 T02930117  RH  034%=      5-min Rain = 0
KSW1 112107Z 00009KT 30/12 A3011 RMK A01 T02960118  RH  033%=      5-min Rain = 0
KSW1 112108Z 36008KT 30/12 A3011 RMK A01 T02960116  RH  033%=      5-min Rain = 0
KSW1 112109Z 34009KT 30/12 A3011 RMK A01 T02950116  RH  033%=      5-min Rain = 0
KSW1 112110Z 32006KT 29/11 A3011 RMK A01 T02940114  RH  033%=      5-min Rain = 0
KSW1 112111Z 33005KT 29/11 A3011 RMK A01 T02920114  RH  033%=      5-min Rain = 0
KSW1 112112Z 35007KT 29/12 A3011 RMK A01 T02910115  RH  034%=      5-min Rain = 0
KSW1 112113Z 00007KT 29/11 A3011 RMK A01 T02910113  RH  033%=      5-min Rain = 0
KSW1 112114Z 01010KT 29/12 A3011 RMK A01 T02940115  RH  033%=      5-min Rain = 0
KSW1 112115Z 01009KT 30/11 A3011 RMK A01 T02960113  RH  032%=      5-min Rain = 0
KSW1 112116Z 03009KT 30/12 A3011 RMK A01 T02970117  RH  033%=      5-min Rain = 0
KSW1 112117Z 03008KT 30/11 A3011 RMK A01 T02980114  RH  032%=      5-min Rain = 0
KSW1 112118Z 04005KT 30/11 A3011 RMK A01 T02950113  RH  032%=      5-min Rain = 0
KSW1 112119Z 01006KT 29/11 A3011 RMK A01 T02940113  RH  033%=      5-min Rain = 0
KSW1 112120Z 00006KT 29/11 A3011 RMK A01 T02920113  RH  033%=      5-min Rain = 0
KSW1 112121Z 36006KT 29/11 A3011 RMK A01 T02920111  RH  033%=      5-min Rain = 0
KSW1 112122Z 03006G11KT 29/11 A3011 RMK A01 T02920112  RH  033%=      5-min Rain = 0
KSW1 112123Z 04010KT 29/11 A3011 RMK A01 T02930112  RH  033%=      5-min Rain = 0
KSW1 112124Z 05007KT 29/11 A3011 RMK A01 T02940110  RH  032%=      5-min Rain = 0
KSW1 112125Z 04007KT 29/11 A3011 RMK A01 T02930113  RH  033%=      5-min Rain = 0
KSW1 112126Z 03009KT 29/11 A3011 RMK A01 T02940110  RH  032%=      5-min Rain = 0
KSW1 112127Z 02008KT 29/11 A3011 RMK A01 T02940111  RH  032%=      5-min Rain = 0
KSW1 112128Z 01007KT 30/11 A3011 RMK A01 T02950110  RH  032%=      5-min Rain = 0
KSW1 112129Z 05006KT 30/11 A3011 RMK A01 T02950110  RH  032%=      5-min Rain = 0
KSW1 112130Z 02005KT 30/11 A3011 RMK A01 T02960111  RH  032%=      5-min Rain = 0
KSW1 112131Z 03002KT 30/11 A3011 RMK A01 T02960107  RH  031%=      5-min Rain = 0
KSW1 112132Z 04005KT 30/11 A301 RMK A01 T02950111  RH  032%=      5-min Rain = 0
KSW1 112133Z 01005KT 30/11 A3011 RMK A01 T02950111  RH  032%=      5-min Rain = 0
KSW1 112134Z 36008KT 30/11 A301 RMK A01 T02970111  RH  032%=      5-min Rain = 0
KSW1 112135Z 35007KT 30/11 A301 RMK A01 T02970111  RH  032%=      5-min Rain = 0
KSW1 112136Z 01008KT 30/11 A301 RMK A01 T02960114  RH  033%=      5-min Rain = 0
KSW1 112137Z 01007KT 30/11 A301 RMK A01 T02960114  RH  033%=      5-min Rain = 0
KSW1 112138Z 01005KT 30/12 A301 RMK A01 T02960115  RH  033%=      5-min Rain = 0
KSW1 112139Z 34004KT 30/12 A301 RMK A01 T02970116  RH  033%=      5-min Rain = 0
KSW1 112140Z 32004KT 30/11 A301 RMK A01 T02970113  RH  032%=      5-min Rain = 0
KSW1 112141Z 35005KT 30/11 A301 RMK A01 T02960113  RH  032%=      5-min Rain = 0
KSW1 112142Z 01005KT 29/11 A301 RMK A01 T02940112  RH  032%=      5-min Rain = 0
KSW1 112143Z 34006KT 29/11 A301 RMK A01 T02920113  RH  033%=      5-min Rain = 0
KSW1 112144Z 36005KT 29/11 A301 RMK A01 T02920114  RH  033%=      5-min Rain = 0
KSW1 112145Z 34006KT 29/11 A301 RMK A01 T02930114  RH  033%=      5-min Rain = 0
KSW1 112146Z 01007KT 29/12 A301 RMK A01 T02940115  RH  033%=      5-min Rain = 0
KSW1 112147Z 04007KT 30/11 A301 RMK A01 T02950114  RH  033%=      5-min Rain = 0
KSW1 112148Z 04006KT 30/11 A301 RMK A01 T02950113  RH  033%=      5-min Rain = 0
KSW1 112149Z 04010KT 29/11 A301 RMK A01 T02930114  RH  033%=      5-min Rain = 0
KSW1 112150Z 02008KT 29/11 A301 RMK A01 T02930114  RH  033%=      5-min Rain = 0
KSW1 112151Z 03006KT 29/11 A301 RMK A01 T02930113  RH  033%=      5-min Rain = 0
KSW1 112152Z 02006KT 29/11 A301 RMK A01 T02930113  RH  033%=      5-min Rain = 0
KSW1 112153Z 02007KT 29/11 A301 RMK A01 T02920114  RH  033%=      5-min Rain = 0
KSW1 112154Z 01005KT 29/11 A301 RMK A01 T02910112  RH  033%=      5-min Rain = 0
KSW1 112155Z 00006KT 29/11 A301 RMK A01 T02900113  RH  033%=      5-min Rain = 0
KSW1 112156Z 35005KT 29/11 A301 RMK A01 T02900113  RH  033%=      5-min Rain = 0
KSW1 112157Z 35002KT 29/11 A301 RMK A01 T02910114  RH  033%=      5-min Rain = 0
KSW1 112158Z 00002KT 29/12 A301 RMK A01 T02920115  RH  033%=      5-min Rain = 0
KSW1 112159Z 04005KT 29/12 A301 RMK A01 T02940115  RH  033%=      5-min Rain = 0
KSW1 112200Z 06006KT 30/11 A301 RMK A01 T02950113  RH  032%=      5-min Rain = 0
KSW1 112201Z 05006KT 29/11 A301 RMK A01 T02940113  RH  033%=      5-min Rain = 0
KSW1 112202Z 04006KT 29/11 A301 RMK A01 T02940113  RH  033%=      5-min Rain = 0
KSW1 112203Z 03009KT 30/11 A301 RMK A01 T02970114  RH  032%=      5-min Rain = 0
KSW1 112204Z 04010KT 30/11 A301 RMK A01 T02980112  RH  032%=      5-min Rain = 0
KSW1 112205Z 04009KT 30/11 A301 RMK A01 T02950111  RH  032%=      5-min Rain = 0
KSW1 112206Z 06006KT 29/11 A3009 RMK A01 T02920111  RH  033%=      5-min Rain = 0
KSW1 112207Z 06007KT 29/11 A3009 RMK A01 T02910112  RH  033%=      5-min Rain = 0
KSW1 112208Z 05006KT 29/11 A3009 RMK A01 T02910113  RH  033%=      5-min Rain = 0
KSW1 112209Z 01005KT 29/12 A3009 RMK A01 T02940116  RH  033%=      5-min Rain = 0
KSW1 112210Z 36006KT 30/12 A3009 RMK A01 T02960116  RH  033%=      5-min Rain = 0
KSW1 112211Z 35005KT 30/12 A3009 RMK A01 T02970117  RH  033%=      5-min Rain = 0
KSW1 112212Z 00007KT 30/12 A3009 RMK A01 T02990115  RH  032%=      5-min Rain = 0
KSW1 112213Z 01005KT 30/11 A3009 RMK A01 T02960114  RH  032%=      5-min Rain = 0
KSW1 112214Z 35008KT 30/12 A3009 RMK A01 T02950115  RH  033%=      5-min Rain = 0
KSW1 112215Z 35006KT 30/12 A3009 RMK A01 T02950117  RH  033%=      5-min Rain = 0
KSW1 112216Z 35008KT 30/12 A3009 RMK A01 T02970115  RH  033%=      5-min Rain = 0
KSW1 112217Z 34007KT 30/11 A3009 RMK A01 T02970114  RH  032%=      5-min Rain = 0
KSW1 112218Z 33007KT 30/11 A3009 RMK A01 T02950114  RH  033%=      5-min Rain = 0
KSW1 112219Z 33008KT 29/11 A3009 RMK A01 T02930113  RH  033%=      5-min Rain = 0
KSW1 112220Z 34008KT 29/11 A3009 RMK A01 T02910113  RH  033%=      5-min Rain = 0
KSW1 112221Z 34007KT 29/11 A3009 RMK A01 T02910114  RH  034%=      5-min Rain = 0
KSW1 112222Z 00006KT 29/11 A3009 RMK A01 T02920114  RH  033%=      5-min Rain = 0
KSW1 112223Z 02006KT 29/11 A3009 RMK A01 T02920114  RH  033%=      5-min Rain = 0
KSW1 112224Z 02005KT 29/11 A3009 RMK A01 T02920113  RH  033%=      5-min Rain = 0
KSW1 112225Z 02003KT 29/12 A3009 RMK A01 T02910115  RH  034%=      5-min Rain = 0
KSW1 112226Z 01003KT 29/12 A3009 RMK A01 T02910115  RH  034%=      5-min Rain = 0
KSW1 112227Z 02003KT 29/12 A3009 RMK A01 T02910118  RH  034%=      5-min Rain = 0
KSW1 112228Z 02007KT 29/12 A3009 RMK A01 T02930117  RH  034%=      5-min Rain = 0
KSW1 112229Z 01009KT 30/12 A3009 RMK A01 T02950115  RH  033%=      5-min Rain = 0
KSW1 112230Z 00007KT 30/11 A3009 RMK A01 T02960113  RH  032%=      5-min Rain = 0
KSW1 112231Z 36004KT 30/11 A3009 RMK A01 T02960112  RH  032%=      5-min Rain = 0
KSW1 112232Z 00004KT 30/11 A3009 RMK A01 T02950111  RH  032%=      5-min Rain = 0
KSW1 112233Z 01005KT 29/11 A3009 RMK A01 T02940114  RH  033%=      5-min Rain = 0
KSW1 112234Z 03008KT 30/11 A3009 RMK A01 T02950113  RH  033%=      5-min Rain = 0
KSW1 112235Z 03009KT 30/11 A3009 RMK A01 T02960111  RH  032%=      5-min Rain = 0
KSW1 112236Z 03007KT 30/11 A3009 RMK A01 T02970111  RH  032%=      5-min Rain = 0
KSW1 112237Z 02007KT 30/11 A3009 RMK A01 T02970111  RH  032%=      5-min Rain = 0
KSW1 112238Z 03005KT 30/11 A3009 RMK A01 T02960109  RH  031%=      5-min Rain = 0
KSW1 112239Z 01008KT 29/11 A3009 RMK A01 T02940112  RH  033%=      5-min Rain = 0
KSW1 112240Z 01009KT 29/11 A3009 RMK A01 T02940111  RH  032%=      5-min Rain = 0
KSW1 112241Z 02008KT 29/11 A3009 RMK A01 T02940112  RH  032%=      5-min Rain = 0
KSW1 112242Z 03009KT 29/11 A3009 RMK A01 T02930112  RH  033%=      5-min Rain = 0
KSW1 112243Z 04007KT 29/11 A3009 RMK A01 T02930110  RH  032%=      5-min Rain = 0
KSW1 112244Z 02006KT 29/11 A3009 RMK A01 T02920110  RH  032%=      5-min Rain = 0
KSW1 112245Z 02008KT 29/11 A3009 RMK A01 T02910112  RH  033%=      5-min Rain = 0
KSW1 112246Z 01005KT 29/11 A3009 RMK A01 T02920111  RH  033%=      5-min Rain = 0
KSW1 112247Z 00007KT 29/11 A3009 RMK A01 T02910112  RH  033%=      5-min Rain = 0
KSW1 112248Z 01009KT 29/11 A3009 RMK A01 T02910114  RH  033%=      5-min Rain = 0
KSW1 112249Z 00007KT 29/11 A3009 RMK A01 T02910112  RH  033%=      5-min Rain = 0
KSW1 112250Z 00007KT 29/11 A3009 RMK A01 T02910111  RH  033%=      5-min Rain = 0
KSW1 112251Z 02006KT 29/11 A3009 RMK A01 T02900113  RH  033%=      5-min Rain = 0
KSW1 112252Z 05008KT 29/11 A3009 RMK A01 T02900114  RH  033%=      5-min Rain = 0
KSW1 112253Z 05010KT 29/11 A3009 RMK A01 T02920114  RH  033%=      5-min Rain = 0
KSW1 112254Z 05008KT 29/11 A3009 RMK A01 T02920112  RH  033%=      5-min Rain = 0
KSW1 112255Z 06007KT 29/11 A3009 RMK A01 T02910111  RH  033%=      5-min Rain = 0
KSW1 112256Z 06004KT 29/11 A3009 RMK A01 T02890112  RH  033%=      5-min Rain = 0
KSW1 112257Z 05004KT 29/11 A3009 RMK A01 T02900113  RH  034%=      5-min Rain = 0
KSW1 112258Z 04003KT 29/11 A3009 RMK A01 T02900111  RH  033%=      5-min Rain = 0
KSW1 112259Z 00003KT 29/11 A3009 RMK A01 T02900112  RH  033%=      5-min Rain = 0
KSW1 112300Z 02003KT 29/11 A3009 RMK A01 T02900110  RH  033%=      5-min Rain = 0
KSW1 112301Z 36005KT 29/11 A3009 RMK A01 T02900112  RH  033%=      5-min Rain = 0
KSW1 112302Z 34006KT 29/11 A3009 RMK A01 T02900113  RH  033%=      5-min Rain = 0
KSW1 112303Z 36004KT 29/11 A3009 RMK A01 T02910111  RH  033%=      5-min Rain = 0
KSW1 112304Z 00008KT 29/11 A3009 RMK A01 T02920113  RH  033%=      5-min Rain = 0
KSW1 112305Z 01007KT 29/11 A3009 RMK A01 T02920110  RH  032%=      5-min Rain = 0
KSW1 112306Z 35007KT 29/11 A3009 RMK A01 T02920111  RH  033%=      5-min Rain = 0
KSW1 112307Z 35007KT 29/11 A3009 RMK A01 T02920111  RH  033%=      5-min Rain = 0
KSW1 112308Z 02005KT 29/11 A3009 RMK A01 T02910110  RH  033%=      5-min Rain = 0
KSW1 112309Z 01006KT 29/11 A3009 RMK A01 T02910110  RH  033%=      5-min Rain = 0
KSW1 112310Z 01005KT 29/11 A3009 RMK A01 T02910110  RH  033%=      5-min Rain = 0
KSW1 112311Z 03006KT 29/11 A3009 RMK A01 T02900111  RH  033%=      5-min Rain = 0
KSW1 112312Z 03008KT 29/11 A3009 RMK A01 T02910110  RH  032%=      5-min Rain = 0
KSW1 112313Z 03009KT 29/11 A3009 RMK A01 T02920110  RH  033%=      5-min Rain = 0
KSW1 112314Z 04008KT 29/11 A3009 RMK A01 T02920109  RH  032%=      5-min Rain = 0
KSW1 112315Z 05007KT 29/11 A3008 RMK A01 T02910107  RH  032%=      5-min Rain = 0
KSW1 112316Z 04005KT 29/11 A3008 RMK A01 T02890107  RH  032%=      5-min Rain = 0
KSW1 112317Z 03007KT 29/11 A3008 RMK A01 T02890110  RH  033%=      5-min Rain = 0
KSW1 112318Z 03007KT 29/11 A3008 RMK A01 T02900109  RH  033%=      5-min Rain = 0
KSW1 112319Z 04005KT 29/11 A3008 RMK A01 T02900109  RH  032%=      5-min Rain = 0
KSW1 112320Z 04007KT 29/11 A3008 RMK A01 T02900110  RH  033%=      5-min Rain = 0
KSW1 112321Z 04007KT 29/11 A3008 RMK A01 T02900108  RH  032%=      5-min Rain = 0
KSW1 112322Z 03007KT 29/11 A3008 RMK A01 T02890107  RH  032%=      5-min Rain = 0
KSW1 112323Z 03005KT 29/11 A3008 RMK A01 T02880106  RH  032%=      5-min Rain = 0
KSW1 112324Z 04006KT 29/11 A3009 RMK A01 T02870107  RH  033%=      5-min Rain = 0
KSW1 112325Z 05005KT 29/11 A3008 RMK A01 T02860107  RH  033%=      5-min Rain = 0
KSW1 112326Z 05005KT 29/11 A3008 RMK A01 T02870109  RH  033%=      5-min Rain = 0
KSW1 112327Z 06005KT 29/11 A3008 RMK A01 T02880109  RH  033%=      5-min Rain = 0
KSW1 112328Z 07004KT 29/11 A3008 RMK A01 T02880108  RH  033%=      5-min Rain = 0
KSW1 112329Z 08007KT 29/11 A3008 RMK A01 T02880108  RH  033%=      5-min Rain = 0
KSW1 112330Z 05010KT 29/11 A3008 RMK A01 T02890108  RH  033%=      5-min Rain = 0
KSW1 112331Z 04009KT 29/11 A3008 RMK A01 T02880107  RH  032%=      5-min Rain = 0
KSW1 112332Z 03007KT 29/11 A3008 RMK A01 T02870107  RH  033%=      5-min Rain = 0
KSW1 112333Z 04005KT 29/11 A3008 RMK A01 T02870109  RH  033%=      5-min Rain = 0
KSW1 112334Z 04006KT 29/11 A3008 RMK A01 T02870110  RH  033%=      5-min Rain = 0
KSW1 112335Z 04006KT 29/11 A3008 RMK A01 T02880111  RH  033%=      5-min Rain = 0
KSW1 112336Z 04008KT 29/11 A3008 RMK A01 T02890110  RH  033%=      5-min Rain = 0
KSW1 112337Z 03007KT 29/11 A3008 RMK A01 T02880107  RH  032%=      5-min Rain = 0
KSW1 112338Z 04005KT 29/11 A3008 RMK A01 T02870107  RH  033%=      5-min Rain = 0
KSW1 112339Z 05006KT 29/11 A3008 RMK A01 T02860109  RH  033%=      5-min Rain = 0
KSW1 112340Z 04007KT 29/11 A3008 RMK A01 T02860108  RH  033%=      5-min Rain = 0
KSW1 112341Z 04007KT 29/11 A3008 RMK A01 T02850107  RH  033%=      5-min Rain = 0
KSW1 112342Z 04005KT 29/11 A3008 RMK A01 T02850108  RH  033%=      5-min Rain = 0
KSW1 112343Z 05004KT 29/11 A3008 RMK A01 T02850108  RH  033%=      5-min Rain = 0
KSW1 112344Z 04004KT 29/11 A3008 RMK A01 T02850108  RH  033%=      5-min Rain = 0
KSW1 112345Z 04004KT 29/11 A3008 RMK A01 T02850107  RH  033%=      5-min Rain = 0
KSW1 112346Z 05004KT 29/11 A3008 RMK A01 T02850108  RH  033%=      5-min Rain = 0
KSW1 112347Z 03005KT 29/11 A3008 RMK A01 T02850109  RH  034%=      5-min Rain = 0
KSW1 112348Z 02006KT 29/11 A3008 RMK A01 T02850108  RH  033%=      5-min Rain = 0
KSW1 112349Z 02007KT 28/11 A3008 RMK A01 T02840108  RH  033%=      5-min Rain = 0
KSW1 112350Z 03006KT 28/11 A3008 RMK A01 T02840108  RH  033%=      5-min Rain = 0
KSW1 112351Z 04007KT 28/11 A3008 RMK A01 T02840109  RH  034%=      5-min Rain = 0
KSW1 112352Z 05005KT 28/11 A3008 RMK A01 T02840109  RH  034%=      5-min Rain = 0
KSW1 112353Z 05006KT 28/11 A3008 RMK A01 T02830108  RH  034%=      5-min Rain = 0
KSW1 112354Z 05005KT 28/11 A3008 RMK A01 T02830106  RH  033%=      5-min Rain = 0
KSW1 112355Z 04004KT 28/11 A3008 RMK A01 T02820108  RH  034%=      5-min Rain = 0
KSW1 112356Z 04004KT 28/11 A3008 RMK A01 T02820110  RH  034%=      5-min Rain = 0
KSW1 112357Z 05004KT 28/11 A3008 RMK A01 T02820109  RH  034%=      5-min Rain = 0
KSW1 112358Z 05004KT 28/11 A3008 RMK A01 T02820109  RH  034%=      5-min Rain = 0
KSW1 112359Z 06005KT 28/11 A3008 RMK A01 T02820109  RH  034%=      5-min Rain = 0
KSW1 120000Z 05004KT 28/11 A3008 RMK A01 T02810110  RH  034%=      5-min Rain = 0
KSW1 120001Z 05004KT 28/11 A3008 RMK A01 T02810110  RH  034%=      5-min Rain = 0
KSW1 120002Z 05005KT 28/11 A3008 RMK A01 T02810109  RH  034%=      5-min Rain = 0
KSW1 120003Z 04006KT 28/11 A3008 RMK A01 T02800110  RH  035%=      5-min Rain = 0
KSW1 120004Z 03006KT 28/11 A3008 RMK A01 T02800108  RH  034%=      5-min Rain = 0
KSW1 120005Z 03005KT 28/11 A3008 RMK A01 T02790109  RH  035%=      5-min Rain = 0
KSW1 120006Z 03005KT 28/11 A3008 RMK A01 T02790109  RH  035%=      5-min Rain = 0
KSW1 120007Z 03006KT 28/11 A3008 RMK A01 T02780109  RH  035%=      5-min Rain = 0
KSW1 120008Z 03006KT 28/11 A3008 RMK A01 T02780108  RH  035%=      5-min Rain = 0
KSW1 120009Z 03007KT 28/11 A3008 RMK A01 T02770107  RH  035%=      5-min Rain = 0
KSW1 120010Z 03006KT 28/11 A3008 RMK A01 T02770108  RH  035%=      5-min Rain = 0
KSW1 120011Z 04006KT 28/11 A3008 RMK A01 T02770109  RH  035%=      5-min Rain = 0
KSW1 120012Z 04007KT 28/11 A3008 RMK A01 T02760108  RH  035%=      5-min Rain = 0
KSW1 120013Z 04006KT 28/11 A3008 RMK A01 T02750108  RH  035%=      5-min Rain = 0
KSW1 120014Z 04005KT 28/11 A3008 RMK A01 T02750109  RH  036%=      5-min Rain = 0
KSW1 120015Z 04006KT 27/11 A3008 RMK A01 T02740110  RH  036%=      5-min Rain = 0
KSW1 120016Z 05006KT 27/11 A3008 RMK A01 T02730109  RH  036%=      5-min Rain = 0
KSW1 120017Z 05006KT 27/11 A3008 RMK A01 T02720108  RH  036%=      5-min Rain = 0
KSW1 120018Z 05006KT 27/11 A3008 RMK A01 T02720109  RH  036%=      5-min Rain = 0
KSW1 120019Z 05006KT 27/11 A3008 RMK A01 T02710108  RH  036%=      5-min Rain = 0
KSW1 120020Z 05006KT 27/11 A3008 RMK A01 T02710108  RH  036%=      5-min Rain = 0
KSW1 120021Z 05005KT 27/11 A3008 RMK A01 T02700109  RH  036%=      5-min Rain = 0
KSW1 120022Z 05005KT 27/11 A3008 RMK A01 T02690109  RH  037%=      5-min Rain = 0
KSW1 120023Z 05006KT 27/11 A3008 RMK A01 T02680109  RH  037%=      5-min Rain = 0
KSW1 120024Z 06005KT 27/11 A3008 RMK A01 T02670109  RH  037%=      5-min Rain = 0
KSW1 120025Z 05005KT 27/11 A3008 RMK A01 T02660109  RH  037%=      5-min Rain = 0
KSW1 120026Z 05005KT 27/11 A3008 RMK A01 T02660110  RH  038%=      5-min Rain = 0
KSW1 120027Z 06005KT 27/11 A3008 RMK A01 T02650110  RH  038%=      5-min Rain = 0
KSW1 120028Z 06005KT 26/11 A3008 RMK A01 T02640111  RH  038%=      5-min Rain = 0
KSW1 120029Z 06005KT 26/11 A3008 RMK A01 T02630111  RH  039%=      5-min Rain = 0
KSW1 120030Z 06005KT 26/11 A3008 RMK A01 T02620111  RH  039%=      5-min Rain = 0
KSW1 120031Z 06006KT 26/11 A3008 RMK A01 T02610111  RH  039%=      5-min Rain = 0
KSW1 120032Z 06006KT 26/11 A3008 RMK A01 T02610111  RH  039%=      5-min Rain = 0
KSW1 120033Z 06006KT 26/11 A3008 RMK A01 T02600110  RH  039%=      5-min Rain = 0
KSW1 120034Z 06006KT 26/11 A3008 RMK A01 T02590110  RH  039%=      5-min Rain = 0
KSW1 120035Z 06006KT 26/11 A3008 RMK A01 T02580110  RH  039%=      5-min Rain = 0
KSW1 120036Z 06006KT 26/11 A3008 RMK A01 T02570110  RH  040%=      5-min Rain = 0
KSW1 120037Z 06006KT 26/11 A3008 RMK A01 T02560110  RH  040%=      5-min Rain = 0
KSW1 120038Z 06006KT 26/11 A3008 RMK A01 T02550110  RH  040%=      5-min Rain = 0
KSW1 120039Z 06006KT 25/11 A3008 RMK A01 T02540109  RH  040%=      5-min Rain = 0
KSW1 120040Z 06005KT 25/11 A3008 RMK A01 T02530109  RH  040%=      5-min Rain = 0
KSW1 120041Z 06005KT 25/11 A3008 RMK A01 T02520110  RH  041%=      5-min Rain = 0
KSW1 120042Z 06005KT 25/11 A3008 RMK A01 T02510110  RH  041%=      5-min Rain = 0
KSW1 120043Z 06005KT 25/11 A3008 RMK A01 T02500110  RH  041%=      5-min Rain = 0
KSW1 120044Z 06005KT 25/11 A3008 RMK A01 T02490110  RH  041%=      5-min Rain = 0
KSW1 120045Z 07005KT 25/11 A3008 RMK A01 T02480109  RH  042%=      5-min Rain = 0
KSW1 120046Z 07005KT 25/11 A3008 RMK A01 T02460109  RH  042%=      5-min Rain = 0
KSW1 120047Z 07006KT 25/11 A3008 RMK A01 T02450109  RH  042%=      5-min Rain = 0
KSW1 120048Z 07006KT 24/11 A3008 RMK A01 T02440109  RH  042%=      5-min Rain = 0
KSW1 120049Z 07006KT 24/11 A3008 RMK A01 T02430109  RH  043%=      5-min Rain = 0
KSW1 120050Z 07006KT 24/11 A3008 RMK A01 T02430109  RH  043%=      5-min Rain = 0
KSW1 120051Z 07006KT 24/11 A3008 RMK A01 T02420108  RH  043%=      5-min Rain = 0
KSW1 120052Z 07006KT 24/11 A3008 RMK A01 T02410108  RH  043%=      5-min Rain = 0
KSW1 120053Z 07006KT 24/11 A3008 RMK A01 T02400108  RH  043%=      5-min Rain = 0
KSW1 120054Z 07006KT 24/11 A3008 RMK A01 T02390108  RH  044%=      5-min Rain = 0
KSW1 120055Z 07006KT 24/11 A3008 RMK A01 T02380108  RH  044%=      5-min Rain = 0
KSW1 120056Z 07006KT 24/11 A3008 RMK A01 T02370108  RH  044%=      5-min Rain = 0
KSW1 120057Z 07007KT 24/11 A3008 RMK A01 T02370108  RH  044%=      5-min Rain = 0
KSW1 120058Z 07007KT 24/11 A3008 RMK A01 T02360108  RH  044%=      5-min Rain = 0
KSW1 120059Z 07007KT 24/11 A3008 RMK A01 T02350108  RH  045%=      5-min Rain = 0
KSW1 120100Z 07007KT 23/11 A3008 RMK A01 T02340107  RH  045%=      5-min Rain = 0
KSW1 120101Z 07007KT 23/11 A3008 RMK A01 T02330107  RH  045%=      5-min Rain = 0
KSW1 120102Z 07007KT 23/11 A3008 RMK A01 T02320107  RH  045%=      5-min Rain = 0
KSW1 120103Z 07007KT 23/11 A3008 RMK A01 T02320107  RH  045%=      5-min Rain = 0
KSW1 120104Z 07007KT 23/11 A3008 RMK A01 T02310107  RH  045%=      5-min Rain = 0
KSW1 120105Z 07007KT 23/11 A3008 RMK A01 T02300107  RH  046%=      5-min Rain = 0
KSW1 120106Z 07007KT 23/11 A3008 RMK A01 T02300107  RH  046%=      5-min Rain = 0
KSW1 120107Z 07007KT 23/11 A3008 RMK A01 T02300107  RH  046%=      5-min Rain = 0
KSW1 120108Z 08007KT 23/11 A3008 RMK A01 T02290106  RH  046%=      5-min Rain = 0
KSW1 120109Z 08007KT 23/11 A3008 RMK A01 T02290106  RH  046%=      5-min Rain = 0
KSW1 120110Z 08007KT 23/11 A3008 RMK A01 T02290106  RH  046%=      5-min Rain = 0
KSW1 120111Z 08007KT 23/11 A3008 RMK A01 T02300106  RH  045%=      5-min Rain = 0
KSW1 120112Z 08007KT 23/11 A3008 RMK A01 T02300105  RH  045%=      5-min Rain = 0
KSW1 120113Z 08007KT 23/11 A3008 RMK A01 T02310106  RH  045%=      5-min Rain = 0
KSW1 120114Z 08007KT 23/11 A3008 RMK A01 T02310105  RH  045%=      5-min Rain = 0
KSW1 120115Z 08007KT 23/11 A3008 RMK A01 T02310106  RH  045%=      5-min Rain = 0
KSW1 120116Z 08007KT 23/11 A3008 RMK A01 T02310106  RH  045%=      5-min Rain = 0
KSW1 120117Z 08007KT 23/11 A3008 RMK A01 T02310106  RH  045%=      5-min Rain = 0
KSW1 120118Z 08007KT 23/11 A3008 RMK A01 T02300106  RH  045%=      5-min Rain = 0
KSW1 120119Z 08008KT 23/11 A3008 RMK A01 T02300106  RH  045%=      5-min Rain = 0
KSW1 120120Z 09008KT 23/11 A3008 RMK A01 T02300106  RH  045%=      5-min Rain = 0
KSW1 120121Z 09008KT 23/11 A3008 RMK A01 T02300105  RH  045%=      5-min Rain = 0
KSW1 120122Z 09008KT 23/11 A3008 RMK A01 T02300105  RH  045%=      5-min Rain = 0
KSW1 120123Z 09008KT 23/11 A3008 RMK A01 T02300106  RH  045%=      5-min Rain = 0
KSW1 120124Z 09008KT 23/11 A3008 RMK A01 T02300105  RH  045%=      5-min Rain = 0
KSW1 120125Z 09008KT 23/11 A3008 RMK A01 T02300105  RH  045%=      5-min Rain = 0
KSW1 120126Z 09007KT 23/11 A3008 RMK A01 T02300105  RH  045%=      5-min Rain = 0
KSW1 120127Z 09007KT 23/11 A3008 RMK A01 T02300105  RH  045%=      5-min Rain = 0
KSW1 120128Z 09007KT 23/11 A3008 RMK A01 T02300105  RH  045%=      5-min Rain = 0
KSW1 120129Z 09007KT 23/11 A3008 RMK A01 T02290106  RH  046%=      5-min Rain = 0
KSW1 120130Z 09007KT 23/11 A3008 RMK A01 T02280106  RH  046%=      5-min Rain = 0
KSW1 120131Z 09007KT 23/11 A3008 RMK A01 T02270106  RH  046%=      5-min Rain = 0
KSW1 120132Z 09007KT 23/11 A3008 RMK A01 T02260105  RH  046%=      5-min Rain = 0
KSW1 120133Z 09006KT 23/11 A3008 RMK A01 T02250105  RH  047%=      5-min Rain = 0
KSW1 120134Z 09006KT 22/11 A3008 RMK A01 T02240105  RH  047%=      5-min Rain = 0
KSW1 120135Z 09006KT 22/11 A3008 RMK A01 T02230105  RH  047%=      5-min Rain = 0
KSW1 120136Z 09006KT 22/11 A3008 RMK A01 T02230105  RH  047%=      5-min Rain = 0
KSW1 120137Z 09006KT 22/11 A3008 RMK A01 T02230105  RH  047%=      5-min Rain = 0
KSW1 120138Z 09007KT 22/11 A3008 RMK A01 T02220106  RH  048%=      5-min Rain = 0
KSW1 120139Z 09007KT 22/11 A3008 RMK A01 T02210105  RH  048%=      5-min Rain = 0
KSW1 120140Z 09007KT 22/11 A3008 RMK A01 T02210105  RH  048%=      5-min Rain = 0
KSW1 120141Z 09007KT 22/11 A3008 RMK A01 T02200105  RH  048%=      5-min Rain = 0
KSW1 120142Z 09007KT 22/11 A3008 RMK A01 T02200105  RH  048%=      5-min Rain = 0
KSW1 120143Z 09007KT 22/11 A3008 RMK A01 T02210106  RH  048%=      5-min Rain = 0
KSW1 120144Z 09007KT 22/11 A3008 RMK A01 T02200105  RH  048%=      5-min Rain = 0
KSW1 120145Z 09007KT 22/11 A3008 RMK A01 T02200105  RH  048%=      5-min Rain = 0
KSW1 120146Z 09007KT 22/11 A3008 RMK A01 T02200105  RH  048%=      5-min Rain = 0
KSW1 120147Z 09007KT 22/11 A3008 RMK A01 T02200105  RH  048%=      5-min Rain = 0
KSW1 120148Z 09007KT 22/11 A3008 RMK A01 T02200105  RH  048%=      5-min Rain = 0
KSW1 120149Z 09007KT 22/10 A3008 RMK A01 T02200104  RH  048%=      5-min Rain = 0
KSW1 120150Z 09007KT 22/10 A3008 RMK A01 T02200104  RH  048%=      5-min Rain = 0
KSW1 120151Z 09007KT 22/10 A3008 RMK A01 T02200104  RH  047%=      5-min Rain = 0
KSW1 120152Z 09007KT 22/10 A3008 RMK A01 T02210104  RH  047%=      5-min Rain = 0
KSW1 120153Z 09007KT 22/10 A3008 RMK A01 T02210104  RH  047%=      5-min Rain = 0
KSW1 120154Z 09007KT 22/10 A3008 RMK A01 T02210104  RH  047%=      5-min Rain = 0
KSW1 120155Z 09007KT 22/10 A3008 RMK A01 T02210104  RH  047%=      5-min Rain = 0
KSW1 120156Z 09007KT 22/10 A3008 RMK A01 T02200104  RH  047%=      5-min Rain = 0
KSW1 120157Z 09007KT 22/10 A3008 RMK A01 T02200104  RH  048%=      5-min Rain = 0
KSW1 120158Z 09007KT 22/10 A3009 RMK A01 T02200104  RH  048%=      5-min Rain = 0
KSW1 120159Z 09007KT 22/10 A3009 RMK A01 T02190103  RH  048%=      5-min Rain = 0
KSW1 120200Z 09007KT 22/10 A3009 RMK A01 T02190103  RH  048%=      5-min Rain = 0
KSW1 120201Z 09007KT 22/10 A3009 RMK A01 T02200103  RH  048%=      5-min Rain = 0
KSW1 120202Z 09007KT 22/10 A3009 RMK A01 T02200103  RH  047%=      5-min Rain = 0
KSW1 120203Z 10007KT 22/10 A3009 RMK A01 T02200103  RH  047%=      5-min Rain = 0
KSW1 120204Z 09007KT 22/10 A3009 RMK A01 T02200103  RH  047%=      5-min Rain = 0
KSW1 120205Z 09007KT 22/10 A3009 RMK A01 T02190103  RH  048%=      5-min Rain = 0
KSW1 120206Z 09007KT 22/10 A3009 RMK A01 T02180103  RH  048%=      5-min Rain = 0
KSW1 120207Z 09008KT 22/10 A3009 RMK A01 T02180103  RH  048%=      5-min Rain = 0
KSW1 120208Z 09008KT 22/10 A3009 RMK A01 T02170103  RH  048%=      5-min Rain = 0
KSW1 120209Z 09008KT 22/10 A3009 RMK A01 T02170102  RH  048%=      5-min Rain = 0
KSW1 120210Z 09007KT 22/10 A3009 RMK A01 T02170103  RH  048%=      5-min Rain = 0
KSW1 120211Z 09007KT 22/10 A3009 RMK A01 T02170102  RH  048%=      5-min Rain = 0
KSW1 120212Z 09007KT 22/10 A3009 RMK A01 T02170102  RH  048%=      5-min Rain = 0
KSW1 120213Z 09007KT 22/10 A3009 RMK A01 T02170102  RH  048%=      5-min Rain = 0
KSW1 120214Z 09007KT 22/10 A3009 RMK A01 T02160102  RH  048%=      5-min Rain = 0
KSW1 120215Z 09007KT 22/10 A3009 RMK A01 T02160102  RH  048%=      5-min Rain = 0
KSW1 120216Z 09007KT 22/10 A3009 RMK A01 T02160102  RH  048%=      5-min Rain = 0
KSW1 120217Z 09007KT 22/10 A3009 RMK A01 T02160102  RH  048%=      5-min Rain = 0
KSW1 120218Z 09007KT 22/10 A3009 RMK A01 T02160101  RH  048%=      5-min Rain = 0
KSW1 120219Z 09007KT 22/10 A3009 RMK A01 T02170101  RH  048%=      5-min Rain = 0
KSW1 120220Z 09006KT 22/10 A3009 RMK A01 T02180101  RH  047%=      5-min Rain = 0
KSW1 120221Z 09006KT 22/10 A3009 RMK A01 T02170102  RH  048%=      5-min Rain = 0
KSW1 120222Z 09006KT 22/10 A3009 RMK A01 T02160102  RH  048%=      5-min Rain = 0
KSW1 120223Z 09006KT 22/10 A3009 RMK A01 T02150102  RH  048%=      5-min Rain = 0
KSW1 120224Z 09007KT 21/10 A3009 RMK A01 T02140102  RH  049%=      5-min Rain = 0
KSW1 120225Z 09007KT 21/10 A3009 RMK A01 T02130102  RH  049%=      5-min Rain = 0
KSW1 120226Z 09007KT 21/10 A3009 RMK A01 T02120102  RH  049%=      5-min Rain = 0
KSW1 120227Z 09007KT 21/10 A3009 RMK A01 T02120101  RH  049%=      5-min Rain = 0
KSW1 120228Z 09007KT 21/10 A3009 RMK A01 T02120101  RH  049%=      5-min Rain = 0
KSW1 120229Z 09007KT 21/10 A3009 RMK A01 T02110101  RH  049%=      5-min Rain = 0
KSW1 120230Z 09007KT 21/10 A3009 RMK A01 T02110101  RH  049%=      5-min Rain = 0
KSW1 120231Z 10007KT 21/10 A3009 RMK A01 T02120101  RH  049%=      5-min Rain = 0
KSW1 120232Z 09007KT 21/10 A3009 RMK A01 T02120101  RH  049%=      5-min Rain = 0
KSW1 120233Z 09007KT 21/10 A3009 RMK A01 T02120101  RH  049%=      5-min Rain = 0
KSW1 120234Z 10007KT 21/10 A3009 RMK A01 T02120101  RH  049%=      5-min Rain = 0
KSW1 120235Z 10007KT 21/10 A3009 RMK A01 T02120101  RH  049%=      5-min Rain = 0
KSW1 120236Z 10008KT 21/10 A3009 RMK A01 T02110101  RH  049%=      5-min Rain = 0
KSW1 120237Z 10008KT 21/10 A3009 RMK A01 T02110101  RH  049%=      5-min Rain = 0
KSW1 120238Z 10008KT 21/10 A3009 RMK A01 T02110101  RH  049%=      5-min Rain = 0
KSW1 120239Z 10008KT 21/10 A3009 RMK A01 T02100101  RH  049%=      5-min Rain = 0
KSW1 120240Z 10008KT 21/10 A3009 RMK A01 T02100101  RH  049%=      5-min Rain = 0
KSW1 120241Z 10008KT 21/10 A3009 RMK A01 T02100100  RH  050%=      5-min Rain = 0
KSW1 120242Z 10008KT 21/10 A3009 RMK A01 T02100101  RH  050%=      5-min Rain = 0
KSW1 120243Z 10008KT 21/10 A3009 RMK A01 T02090100  RH  050%=      5-min Rain = 0
KSW1 120244Z 10008KT 21/10 A3009 RMK A01 T02080100  RH  050%=      5-min Rain = 0
KSW1 120245Z 10008KT 21/10 A3009 RMK A01 T02080100  RH  050%=      5-min Rain = 0
KSW1 120246Z 10008KT 21/10 A3009 RMK A01 T02070100  RH  050%=      5-min Rain = 0
KSW1 120247Z 10008KT 21/10 A3009 RMK A01 T02070100  RH  050%=      5-min Rain = 0
KSW1 120248Z 10008KT 21/10 A3009 RMK A01 T02060101  RH  051%=      5-min Rain = 0
KSW1 120249Z 10007KT 21/10 A3009 RMK A01 T02050100  RH  051%=      5-min Rain = 0
KSW1 120250Z 10007KT 21/10 A3009 RMK A01 T02050100  RH  051%=      5-min Rain = 0
KSW1 120251Z 10007KT 20/10 A3009 RMK A01 T02040100  RH  051%=      5-min Rain = 0
KSW1 120252Z 10007KT 20/10 A3009 RMK A01 T02030100  RH  052%=      5-min Rain = 0
KSW1 120253Z 10008KT 20/10 A3009 RMK A01 T02030100  RH  052%=      5-min Rain = 0
KSW1 120254Z 10008KT 20/10 A3009 RMK A01 T02020100  RH  052%=      5-min Rain = 0
KSW1 120255Z 10008KT 20/10 A3009 RMK A01 T02020100  RH  052%=      5-min Rain = 0
KSW1 120256Z 10008KT 20/10 A3009 RMK A01 T02020100  RH  052%=      5-min Rain = 0
KSW1 120257Z 10008KT 20/10 A3009 RMK A01 T02020100  RH  052%=      5-min Rain = 0
KSW1 120258Z 10008KT 20/10 A3009 RMK A01 T02020100  RH  052%=      5-min Rain = 0
KSW1 120259Z 10008KT 20/10 A3009 RMK A01 T02030100  RH  052%=      5-min Rain = 0
KSW1 120300Z 10008KT 20/10 A3009 RMK A01 T02030099  RH  051%=      5-min Rain = 0
KSW1 120301Z 10008KT 20/10 A3009 RMK A01 T02040099  RH  051%=      5-min Rain = 0
KSW1 120302Z 10008KT 21/10 A301 RMK A01 T02050099  RH  051%=      5-min Rain = 0
KSW1 120303Z 10008KT 21/10 A301 RMK A01 T02050099  RH  051%=      5-min Rain = 0
KSW1 120304Z 10008KT 21/10 A301 RMK A01 T02060099  RH  050%=      5-min Rain = 0
KSW1 120305Z 10008KT 21/10 A301 RMK A01 T02070099  RH  050%=      5-min Rain = 0
KSW1 120306Z 10008KT 21/10 A301 RMK A01 T02070099  RH  050%=      5-min Rain = 0
KSW1 120307Z 10008KT 21/10 A301 RMK A01 T02070099  RH  050%=      5-min Rain = 0
KSW1 120308Z 10008KT 21/10 A301 RMK A01 T02070099  RH  050%=      5-min Rain = 0
KSW1 120309Z 10008KT 21/10 A301 RMK A01 T02070099  RH  050%=      5-min Rain = 0
KSW1 120310Z 10008KT 21/10 A301 RMK A01 T02080099  RH  050%=      5-min Rain = 0
KSW1 120311Z 10008KT 21/10 A301 RMK A01 T02080099  RH  050%=      5-min Rain = 0
KSW1 120312Z 10007KT 21/10 A301 RMK A01 T02080099  RH  050%=      5-min Rain = 0
KSW1 120313Z 10008KT 21/10 A301 RMK A01 T02080099  RH  050%=      5-min Rain = 0
KSW1 120314Z 10008KT 21/10 A301 RMK A01 T02070099  RH  050%=      5-min Rain = 0
KSW1 120315Z 10008KT 21/10 A301 RMK A01 T02070099  RH  050%=      5-min Rain = 0
KSW1 120316Z 10008KT 21/10 A301 RMK A01 T02070099  RH  050%=      5-min Rain = 0
KSW1 120317Z 10008KT 21/10 A301 RMK A01 T02070099  RH  050%=      5-min Rain = 0
KSW1 120318Z 10008KT 21/10 A301 RMK A01 T02070099  RH  050%=      5-min Rain = 0
KSW1 120319Z 10008KT 21/10 A301 RMK A01 T02070099  RH  050%=      5-min Rain = 0
KSW1 120320Z 10008KT 21/10 A301 RMK A01 T02060099  RH  050%=      5-min Rain = 0
KSW1 120321Z 10007KT 21/10 A301 RMK A01 T02060099  RH  050%=      5-min Rain = 0
KSW1 120322Z 10007KT 21/10 A301 RMK A01 T02050099  RH  050%=      5-min Rain = 0
KSW1 120323Z 11007KT 21/10 A301 RMK A01 T02050099  RH  050%=      5-min Rain = 0
KSW1 120324Z 11008KT 21/10 A301 RMK A01 T02050099  RH  050%=      5-min Rain = 0
KSW1 120325Z 11007KT 21/10 A301 RMK A01 T02050099  RH  051%=      5-min Rain = 0
KSW1 120326Z 11007KT 21/10 A301 RMK A01 T02050100  RH  051%=      5-min Rain = 0
KSW1 120327Z 11007KT 21/10 A301 RMK A01 T02050099  RH  051%=      5-min Rain = 0
KSW1 120328Z 11007KT 21/10 A301 RMK A01 T02050099  RH  051%=      5-min Rain = 0
KSW1 120329Z 11006KT 21/10 A301 RMK A01 T02050099  RH  051%=      5-min Rain = 0
KSW1 120330Z 11006KT 20/10 A301 RMK A01 T02040099  RH  051%=      5-min Rain = 0
KSW1 120331Z 11006KT 20/10 A301 RMK A01 T02040099  RH  051%=      5-min Rain = 0
KSW1 120332Z 11007KT 20/10 A301 RMK A01 T02040100  RH  051%=      5-min Rain = 0
KSW1 120333Z 11006KT 20/10 A301 RMK A01 T02030099  RH  051%=      5-min Rain = 0
KSW1 120334Z 11006KT 20/10 A301 RMK A01 T02030100  RH  051%=      5-min Rain = 0
KSW1 120335Z 11007KT 20/10 A301 RMK A01 T02030099  RH  051%=      5-min Rain = 0
KSW1 120336Z 11006KT 20/10 A301 RMK A01 T02030100  RH  052%=      5-min Rain = 0
KSW1 120337Z 11006KT 20/10 A301 RMK A01 T02020100  RH  052%=      5-min Rain = 0
KSW1 120338Z 11007KT 20/10 A301 RMK A01 T02020100  RH  052%=      5-min Rain = 0
KSW1 120339Z 11007KT 20/10 A301 RMK A01 T02020100  RH  052%=      5-min Rain = 0
KSW1 120340Z 11007KT 20/10 A301 RMK A01 T02020100  RH  052%=      5-min Rain = 0
KSW1 120341Z 11007KT 20/10 A301 RMK A01 T02010100  RH  052%=      5-min Rain = 0
KSW1 120342Z 11007KT 20/10 A301 RMK A01 T02010100  RH  052%=      5-min Rain = 0
KSW1 120343Z 11007KT 20/10 A301 RMK A01 T02010100  RH  052%=      5-min Rain = 0
KSW1 120344Z 11006KT 20/10 A301 RMK A01 T02000100  RH  052%=      5-min Rain = 0
KSW1 120345Z 11007KT 20/10 A301 RMK A01 T02000100  RH  053%=      5-min Rain = 0
KSW1 120346Z 11007KT 20/10 A301 RMK A01 T02000100  RH  053%=      5-min Rain = 0
KSW1 120347Z 11006KT 20/10 A301 RMK A01 T01990101  RH  053%=      5-min Rain = 0
KSW1 120348Z 11007KT 20/10 A301 RMK A01 T01990100  RH  053%=      5-min Rain = 0
KSW1 120349Z 11007KT 20/10 A301 RMK A01 T01990101  RH  053%=      5-min Rain = 0
KSW1 120350Z 11007KT 20/10 A301 RMK A01 T01980101  RH  053%=      5-min Rain = 0
KSW1 120351Z 11007KT 20/10 A301 RMK A01 T01990101  RH  053%=      5-min Rain = 0
KSW1 120352Z 10007KT 20/10 A301 RMK A01 T01980101  RH  053%=      5-min Rain = 0
KSW1 120353Z 10007KT 20/10 A301 RMK A01 T01980101  RH  053%=      5-min Rain = 0
KSW1 120354Z 10007KT 20/10 A301 RMK A01 T01980101  RH  054%=      5-min Rain = 0
KSW1 120355Z 10007KT 20/10 A301 RMK A01 T01980101  RH  054%=      5-min Rain = 0
KSW1 120356Z 10007KT 20/10 A301 RMK A01 T01980101  RH  054%=      5-min Rain = 0
KSW1 120357Z 10007KT 20/10 A301 RMK A01 T01970101  RH  054%=      5-min Rain = 0
KSW1 120358Z 10007KT 20/10 A301 RMK A01 T01970101  RH  054%=      5-min Rain = 0
KSW1 120359Z 10008KT 20/10 A301 RMK A01 T01960101  RH  054%=      5-min Rain = 0
KSW1 120400Z 10007KT 20/10 A301 RMK A01 T01960100  RH  054%=      5-min Rain = 0
KSW1 120401Z 10008KT 20/10 A301 RMK A01 T01960100  RH  054%=      5-min Rain = 0
KSW1 120402Z 10007KT 20/10 A301 RMK A01 T01970100  RH  054%=      5-min Rain = 0
KSW1 120403Z 10007KT 20/10 A301 RMK A01 T01970100  RH  054%=      5-min Rain = 0
KSW1 120404Z 10007KT 20/10 A301 RMK A01 T01970101  RH  054%=      5-min Rain = 0
KSW1 120405Z 10007KT 20/10 A301 RMK A01 T01970100  RH  054%=      5-min Rain = 0
KSW1 120406Z 10007KT 20/10 A301 RMK A01 T01970100  RH  053%=      5-min Rain = 0
KSW1 120407Z 09007KT 20/10 A301 RMK A01 T01980100  RH  053%=      5-min Rain = 0
KSW1 120408Z 09008KT 20/10 A301 RMK A01 T01980100  RH  053%=      5-min Rain = 0
KSW1 120409Z 09008KT 20/10 A301 RMK A01 T01980100  RH  053%=      5-min Rain = 0
KSW1 120410Z 10008KT 20/10 A301 RMK A01 T01980100  RH  053%=      5-min Rain = 0
KSW1 120411Z 09008KT 20/10 A301 RMK A01 T01980100  RH  053%=      5-min Rain = 0
KSW1 120412Z 10008KT 20/10 A301 RMK A01 T01980100  RH  053%=      5-min Rain = 0
KSW1 120413Z 10008KT 20/10 A301 RMK A01 T01980100  RH  053%=      5-min Rain = 0
KSW1 120414Z 09008KT 20/10 A301 RMK A01 T01980100  RH  053%=      5-min Rain = 0
KSW1 120415Z 09008KT 20/10 A301 RMK A01 T01970100  RH  053%=      5-min Rain = 0
KSW1 120416Z 09008KT 20/10 A301 RMK A01 T01970100  RH  053%=      5-min Rain = 0
KSW1 120417Z 09008KT 20/10 A301 RMK A01 T01970100  RH  053%=      5-min Rain = 0
KSW1 120418Z 10008KT 20/10 A301 RMK A01 T01980099  RH  053%=      5-min Rain = 0
KSW1 120419Z 10008KT 20/10 A301 RMK A01 T01980099  RH  053%=      5-min Rain = 0
KSW1 120420Z 10008KT 20/10 A301 RMK A01 T01990099  RH  052%=      5-min Rain = 0
KSW1 120421Z 10008KT 20/10 A301 RMK A01 T02000099  RH  052%=      5-min Rain = 0
KSW1 120422Z 10008KT 20/10 A301 RMK A01 T02000099  RH  052%=      5-min Rain = 0
KSW1 120423Z 10008KT 20/10 A301 RMK A01 T02000099  RH  052%=      5-min Rain = 0
KSW1 120424Z 10008KT 20/10 A301 RMK A01 T02000099  RH  052%=      5-min Rain = 0
KSW1 120425Z 10008KT 20/10 A301 RMK A01 T02010099  RH  052%=      5-min Rain = 0
KSW1 120426Z 10008KT 20/10 A3011 RMK A01 T02010099  RH  052%=      5-min Rain = 0
KSW1 120427Z 09008KT 20/10 A301 RMK A01 T02010099  RH  052%=      5-min Rain = 0
KSW1 120428Z 09008KT 20/10 A3011 RMK A01 T02000099  RH  052%=      5-min Rain = 0
KSW1 120429Z 10008KT 20/10 A3011 RMK A01 T02000099  RH  052%=      5-min Rain = 0
KSW1 120430Z 10008KT 20/10 A3011 RMK A01 T02000099  RH  052%=      5-min Rain = 0
KSW1 120431Z 10008KT 20/10 A3011 RMK A01 T02000099  RH  052%=      5-min Rain = 0
KSW1 120432Z 10008KT 20/10 A3011 RMK A01 T01990099  RH  052%=      5-min Rain = 0
KSW1 120433Z 09008KT 20/10 A3011 RMK A01 T01990099  RH  053%=      5-min Rain = 0
KSW1 120434Z 09008KT 20/10 A3011 RMK A01 T01980099  RH  053%=      5-min Rain = 0
KSW1 120435Z 09008KT 20/10 A3011 RMK A01 T01990099  RH  053%=      5-min Rain = 0
KSW1 120436Z 09009KT 20/10 A3011 RMK A01 T01980099  RH  053%=      5-min Rain = 0
KSW1 120437Z 09008KT 20/10 A3011 RMK A01 T01990099  RH  052%=      5-min Rain = 0
KSW1 120438Z 09008KT 20/10 A3011 RMK A01 T01990099  RH  052%=      5-min Rain = 0
KSW1 120439Z 09008KT 20/10 A3011 RMK A01 T01990099  RH  052%=      5-min Rain = 0
KSW1 120440Z 09008KT 20/10 A3011 RMK A01 T01990099  RH  052%=      5-min Rain = 0
KSW1 120441Z 09008KT 20/10 A3011 RMK A01 T01990099  RH  052%=      5-min Rain = 0
KSW1 120442Z 10008KT 20/10 A3011 RMK A01 T01990099  RH  052%=      5-min Rain = 0
KSW1 120443Z 10008KT 20/10 A3011 RMK A01 T01990099  RH  052%=      5-min Rain = 0
KSW1 120444Z 10008KT 20/10 A3011 RMK A01 T01990099  RH  053%=      5-min Rain = 0
KSW1 120445Z 10009KT 20/10 A3011 RMK A01 T01980099  RH  053%=      5-min Rain = 0
KSW1 120446Z 10009KT 20/10 A3011 RMK A01 T01990099  RH  053%=      5-min Rain = 0
KSW1 120447Z 10009KT 20/10 A3011 RMK A01 T01980098  RH  053%=      5-min Rain = 0
KSW1 120448Z 10009KT 20/10 A3011 RMK A01 T01980099  RH  052%=      5-min Rain = 0
KSW1 120449Z 10009KT 20/10 A3011 RMK A01 T01990099  RH  052%=      5-min Rain = 0
KSW1 120450Z 10008KT 20/10 A3011 RMK A01 T01990098  RH  052%=      5-min Rain = 0
KSW1 120451Z 10009KT 20/10 A3011 RMK A01 T01990098  RH  052%=      5-min Rain = 0
KSW1 120452Z 10009KT 20/10 A3011 RMK A01 T01990098  RH  052%=      5-min Rain = 0
KSW1 120453Z 10009KT 20/10 A3011 RMK A01 T01990098  RH  052%=      5-min Rain = 0
KSW1 120454Z 10009KT 20/10 A301 RMK A01 T01990098  RH  052%=      5-min Rain = 0
KSW1 120455Z 10009KT 20/10 A301 RMK A01 T01990098  RH  052%=      5-min Rain = 0
KSW1 120456Z 10009KT 20/10 A301 RMK A01 T01990098  RH  052%=      5-min Rain = 0
KSW1 120457Z 10009KT 20/10 A301 RMK A01 T01990098  RH  052%=      5-min Rain = 0
KSW1 120458Z 10008KT 20/10 A301 RMK A01 T01990098  RH  052%=      5-min Rain = 0
KSW1 120459Z 10008KT 20/10 A301 RMK A01 T01990098  RH  052%=      5-min Rain = 0

Page generated in 0.0817 seconds.